Wetterdaten: Sonntag, 02.09.2018
Datum Zeit Temp. Aussen Temp. o. S. +5cm Feuchte Auss Luftdruck Regen Sonnenschein Regendauer Solar Windben Empfang
02.09.2018 00:00 12,4 C 11,7 C 11,1 C 79 % 1024,6 hPa 0,0 l/m 0 min 0 min 0 W/m 0,0 km/h (0 Bft) 95,65 %
02.09.2018 00:02 12,4 C 11,7 C 11,1 C 79 % 1024,6 hPa 0,0 l/m 0 min 0 min 0 W/m 0,0 km/h (0 Bft) 95,00 %
02.09.2018 00:04 12,4 C 11,7 C 11,1 C 79 % 1024,6 hPa 0,0 l/m 0 min 0 min 0 W/m 0,0 km/h (0 Bft) 97,87 %
02.09.2018 00:08 12,4 C 11,1 C 11,1 C 80 % 1024,7 hPa 0,0 l/m 0 min 0 min 0 W/m 0,0 km/h (0 Bft) 96,81 %
02.09.2018 00:10 12,3 C 11,1 C 11,1 C 80 % 1024,7 hPa 0,0 l/m 0 min 0 min 0 W/m 0,0 km/h (0 Bft) 97,87 %
02.09.2018 00:12 12,3 C 11,1 C 11,1 C 80 % 1024,6 hPa 0,0 l/m 0 min 0 min 0 W/m 0,0 km/h (0 Bft) 97,83 %
02.09.2018 00:14 12,3 C 11,1 C 11,1 C 80 % 1024,6 hPa 0,0 l/m 0 min 0 min 0 W/m 0,0 km/h (0 Bft) 97,87 %
02.09.2018 00:16 12,3 C 11,1 C 10,6 C 80 % 1024,6 hPa 0,0 l/m 0 min 0 min 0 W/m 0,0 km/h (0 Bft) 95,74 %
02.09.2018 00:18 12,2 C 11,1 C 10,6 C 80 % 1024,6 hPa 0,0 l/m 0 min 0 min 0 W/m 0,0 km/h (0 Bft) 97,87 %
02.09.2018 00:20 12,2 C 11,1 C 10,6 C 81 % 1024,7 hPa 0,0 l/m 0 min 0 min 0 W/m 0,0 km/h (0 Bft) 95,74 %
02.09.2018 00:22 12,2 C 11,1 C 10,6 C 81 % 1024,6 hPa 0,0 l/m 0 min 0 min 0 W/m 0,0 km/h (0 Bft) 93,62 %
02.09.2018 00:24 12,2 C 11,1 C 10,6 C 81 % 1024,6 hPa 0,0 l/m 0 min 0 min 0 W/m 0,0 km/h (0 Bft) 95,74 %
02.09.2018 00:26 12,1 C 11,1 C 10,6 C 81 % 1024,6 hPa 0,0 l/m 0 min 0 min 0 W/m 0,0 km/h (0 Bft) 93,48 %
02.09.2018 00:28 12,1 C 11,1 C 10,6 C 81 % 1024,5 hPa 0,0 l/m 0 min 0 min 0 W/m 0,0 km/h (0 Bft) 93,62 %
02.09.2018 00:30 12,1 C 11,1 C 10,6 C 81 % 1024,5 hPa 0,0 l/m 0 min 0 min 0 W/m 0,0 km/h (0 Bft) 95,74 %
02.09.2018 00:32 12,1 C 11,1 C 10,6 C 81 % 1024,5 hPa 0,0 l/m 0 min 0 min 0 W/m 0,0 km/h (0 Bft) 95,74 %
02.09.2018 00:34 12,0 C 11,1 C 10,6 C 81 % 1024,4 hPa 0,0 l/m 0 min 0 min 0 W/m 0,0 km/h (0 Bft) 97,87 %
02.09.2018 00:36 12,0 C 11,1 C 10,6 C 81 % 1024,5 hPa 0,0 l/m 0 min 0 min 0 W/m 0,0 km/h (0 Bft) 97,83 %
02.09.2018 00:38 12,0 C 11,1 C 10,6 C 81 % 1024,5 hPa 0,0 l/m 0 min 0 min 0 W/m 0,0 km/h (0 Bft) 95,74 %
02.09.2018 00:40 11,9 C 11,1 C 10,6 C 82 % 1024,4 hPa 0,0 l/m 0 min 0 min 0 W/m 0,0 km/h (0 Bft) 95,74 %
02.09.2018 00:42 11,9 C 11,1 C 10,6 C 82 % 1024,5 hPa 0,0 l/m 0 min 0 min 0 W/m 0,0 km/h (0 Bft) 95,74 %
02.09.2018 00:44 11,9 C 11,1 C 10,6 C 82 % 1024,5 hPa 0,0 l/m 0 min 0 min 0 W/m 0,0 km/h (0 Bft) 95,74 %
02.09.2018 00:46 11,9 C 11,1 C 11,1 C 83 % 1024,4 hPa 0,0 l/m 0 min 0 min 0 W/m 0,0 km/h (0 Bft) 97,87 %
02.09.2018 00:48 11,9 C 11,7 C 11,1 C 83 % 1024,4 hPa 0,0 l/m 0 min 0 min 0 W/m 0,0 km/h (0 Bft) 97,83 %
02.09.2018 00:50 11,9 C 11,7 C 11,1 C 83 % 1024,4 hPa 0,0 l/m 0 min 0 min 0 W/m 4,5 km/h (1 Bft) 97,87 %
02.09.2018 00:52 11,9 C 11,7 C 11,1 C 84 % 1024,4 hPa 0,0 l/m 0 min 0 min 0 W/m 0,0 km/h (0 Bft) 97,87 %
02.09.2018 00:54 11,8 C 11,7 C 11,1 C 84 % 1024,4 hPa 0,0 l/m 0 min 0 min 0 W/m 0,0 km/h (0 Bft) 97,87 %
02.09.2018 00:56 11,8 C 11,7 C 11,7 C 84 % 1024,4 hPa 0,0 l/m 0 min 0 min 0 W/m 0,0 km/h (0 Bft) 97,87 %
02.09.2018 00:58 11,8 C 11,7 C 11,7 C 85 % 1024,4 hPa 0,0 l/m 0 min 0 min 0 W/m 0,0 km/h (0 Bft) 95,74 %
02.09.2018 01:00 11,8 C 12,2 C 11,7 C 85 % 1024,4 hPa 0,0 l/m 0 min 0 min 0 W/m 0,0 km/h (0 Bft) 97,83 %
02.09.2018 01:02 11,9 C 12,2 C 11,7 C 85 % 1024,4 hPa 0,0 l/m 0 min 0 min 0 W/m 0,0 km/h (0 Bft) 97,87 %
02.09.2018 01:04 11,9 C 12,2 C 11,7 C 86 % 1024,4 hPa 0,0 l/m 0 min 0 min 0 W/m 0,0 km/h (0 Bft) 97,87 %
02.09.2018 01:06 11,9 C 12,2 C 11,7 C 86 % 1024,5 hPa 0,0 l/m 0 min 0 min 0 W/m 0,0 km/h (0 Bft) 100,00 %
02.09.2018 01:08 11,9 C 12,2 C 11,7 C 86 % 1024,5 hPa 0,0 l/m 0 min 0 min 0 W/m 0,0 km/h (0 Bft) 95,74 %
02.09.2018 01:10 11,9 C 12,2 C 12,2 C 86 % 1024,5 hPa 0,0 l/m 0 min 0 min 0 W/m 4,5 km/h (1 Bft) 100,00 %
02.09.2018 01:12 11,9 C 12,2 C 12,2 C 86 % 1024,5 hPa 0,0 l/m 0 min 0 min 0 W/m 4,5 km/h (1 Bft) 97,87 %
02.09.2018 01:14 11,9 C 12,8 C 12,2 C 87 % 1024,4 hPa 0,0 l/m 0 min 0 min 0 W/m 2,3 km/h (1 Bft) 100,00 %
02.09.2018 01:16 12,0 C 12,2 C 12,2 C 87 % 1024,4 hPa 0,0 l/m 0 min 0 min 0 W/m 0,0 km/h (0 Bft) 97,87 %
02.09.2018 01:18 12,0 C 12,2 C 12,2 C 87 % 1024,4 hPa 0,0 l/m 0 min 0 min 0 W/m 0,0 km/h (0 Bft) 100,00 %
02.09.2018 01:20 12,1 C 12,8 C 12,2 C 87 % 1024,4 hPa 0,0 l/m 0 min 0 min 0 W/m 0,0 km/h (0 Bft) 97,87 %
02.09.2018 01:22 12,1 C 12,8 C 12,2 C 87 % 1024,4 hPa 0,0 l/m 0 min 0 min 0 W/m 0,0 km/h (0 Bft) 100,00 %
02.09.2018 01:24 12,1 C 12,8 C 12,2 C 87 % 1024,5 hPa 0,0 l/m 0 min 0 min 0 W/m 0,0 km/h (0 Bft) 100,00 %
02.09.2018 01:26 12,2 C 12,2 C 12,2 C 87 % 1024,4 hPa 0,0 l/m 0 min 0 min 0 W/m 0,0 km/h (0 Bft) 97,87 %
02.09.2018 01:28 12,2 C 12,8 C 12,2 C 87 % 1024,5 hPa 0,0 l/m 0 min 0 min 0 W/m 2,3 km/h (1 Bft) 100,00 %
02.09.2018 01:30 12,2 C 12,8 C 12,2 C 87 % 1024,4 hPa 0,0 l/m 0 min 0 min 0 W/m 2,3 km/h (1 Bft) 100,00 %
02.09.2018 01:32 12,2 C 12,2 C 12,2 C 88 % 1024,4 hPa 0,0 l/m 0 min 0 min 0 W/m 2,3 km/h (1 Bft) 100,00 %
02.09.2018 01:34 12,2 C 12,8 C 12,2 C 88 % 1024,5 hPa 0,0 l/m 0 min 0 min 0 W/m 2,3 km/h (1 Bft) 97,83 %
02.09.2018 01:36 12,3 C 12,2 C 12,2 C 88 % 1024,4 hPa 0,0 l/m 0 min 0 min 0 W/m 0,0 km/h (0 Bft) 100,00 %
02.09.2018 01:38 12,3 C 12,8 C 12,2 C 88 % 1024,5 hPa 0,0 l/m 0 min 0 min 0 W/m 4,5 km/h (1 Bft) 100,00 %
02.09.2018 01:40 12,3 C 12,2 C 12,2 C 88 % 1024,5 hPa 0,0 l/m 0 min 0 min 0 W/m 2,3 km/h (1 Bft) 100,00 %
02.09.2018 01:42 12,4 C 12,2 C 12,2 C 88 % 1024,5 hPa 0,0 l/m 0 min 0 min 0 W/m 0,0 km/h (0 Bft) 100,00 %
02.09.2018 01:44 12,4 C 12,2 C 12,2 C 87 % 1024,4 hPa 0,0 l/m 0 min 0 min 0 W/m 0,0 km/h (0 Bft) 100,00 %
02.09.2018 01:46 12,4 C 12,2 C 12,2 C 87 % 1024,4 hPa 0,0 l/m 0 min 0 min 0 W/m 0,0 km/h (0 Bft) 100,00 %
02.09.2018 01:48 12,4 C 12,2 C 12,2 C 87 % 1024,4 hPa 0,0 l/m 0 min 0 min 0 W/m 2,3 km/h (1 Bft) 97,87 %
02.09.2018 01:50 12,4 C 12,2 C 12,2 C 87 % 1024,4 hPa 0,0 l/m 0 min 0 min 0 W/m 0,0 km/h (0 Bft) 95,74 %
02.09.2018 01:52 12,5 C 12,2 C 12,2 C 87 % 1024,4 hPa 0,0 l/m 0 min 0 min 0 W/m 0,0 km/h (0 Bft) 95,74 %
02.09.2018 01:54 12,5 C 12,2 C 12,2 C 87 % 1024,5 hPa 0,0 l/m 0 min 0 min 0 W/m 2,3 km/h (1 Bft) 95,74 %
02.09.2018 01:56 12,5 C 12,2 C 12,2 C 87 % 1024,4 hPa 0,0 l/m 0 min 0 min 0 W/m 0,0 km/h (0 Bft) 95,74 %
02.09.2018 01:58 12,5 C 12,2 C 12,2 C 87 % 1024,4 hPa 0,0 l/m 0 min 0 min 0 W/m 0,0 km/h (0 Bft) 95,65 %
02.09.2018 02:00 12,5 C 12,2 C 12,2 C 87 % 1024,4 hPa 0,0 l/m 0 min 0 min 0 W/m 6,8 km/h (2 Bft) 95,74 %
02.09.2018 02:02 12,6 C 12,2 C 12,2 C 87 % 1024,4 hPa 0,0 l/m 0 min 0 min 0 W/m 2,3 km/h (1 Bft) 93,62 %
02.09.2018 02:04 12,6 C 12,2 C 12,2 C 87 % 1024,4 hPa 0,0 l/m 0 min 0 min 0 W/m 6,8 km/h (2 Bft) 95,74 %
02.09.2018 02:06 12,6 C 12,2 C 12,2 C 87 % 1024,3 hPa 0,0 l/m 0 min 0 min 0 W/m 4,5 km/h (1 Bft) 95,74 %
02.09.2018 02:08 12,6 C 12,2 C 12,2 C 87 % 1024,3 hPa 0,0 l/m 0 min 0 min 0 W/m 6,8 km/h (2 Bft) 95,65 %
02.09.2018 02:10 12,6 C 12,2 C 12,2 C 87 % 1024,3 hPa 0,0 l/m 0 min 0 min 0 W/m 6,8 km/h (2 Bft) 93,62 %
02.09.2018 02:12 12,6 C 12,2 C 12,2 C 87 % 1024,3 hPa 0,0 l/m 0 min 0 min 0 W/m 0,0 km/h (0 Bft) 95,74 %
02.09.2018 02:14 12,7 C 12,2 C 12,2 C 87 % 1024,3 hPa 0,0 l/m 0 min 0 min 0 W/m 0,0 km/h (0 Bft) 95,74 %
02.09.2018 02:16 12,7 C 12,2 C 12,2 C 87 % 1024,3 hPa 0,0 l/m 0 min 0 min 0 W/m 0,0 km/h (0 Bft) 95,74 %
02.09.2018 02:18 12,7 C 12,2 C 12,2 C 87 % 1024,3 hPa 0,0 l/m 0 min 0 min 0 W/m 0,0 km/h (0 Bft) 93,62 %
02.09.2018 02:20 12,7 C 12,2 C 12,2 C 87 % 1024,2 hPa 0,0 l/m 0 min 0 min 0 W/m 0,0 km/h (0 Bft) 95,65 %
02.09.2018 02:22 12,7 C 12,2 C 12,2 C 87 % 1024,2 hPa 0,0 l/m 0 min 0 min 0 W/m 0,0 km/h (0 Bft) 95,74 %
02.09.2018 02:24 12,7 C 11,7 C 12,2 C 87 % 1024,2 hPa 0,0 l/m 0 min 0 min 0 W/m 2,3 km/h (1 Bft) 95,74 %
02.09.2018 02:26 12,7 C 11,7 C 12,2 C 87 % 1024,2 hPa 0,0 l/m 0 min 0 min 0 W/m 2,3 km/h (1 Bft) 95,74 %
02.09.2018 02:28 12,7 C 11,7 C 11,7 C 87 % 1024,2 hPa 0,0 l/m 0 min 0 min 0 W/m 0,0 km/h (0 Bft) 95,74 %
02.09.2018 02:30 12,7 C 11,7 C 11,7 C 87 % 1024,2 hPa 0,0 l/m 0 min 0 min 0 W/m 0,0 km/h (0 Bft) 95,74 %
02.09.2018 02:32 12,7 C 11,7 C 11,7 C 87 % 1024,2 hPa 0,0 l/m 0 min 0 min 0 W/m 0,0 km/h (0 Bft) 95,65 %
02.09.2018 02:34 12,7 C 11,7 C 11,7 C 87 % 1024,2 hPa 0,0 l/m 0 min 0 min 0 W/m 2,3 km/h (1 Bft) 95,74 %
02.09.2018 02:36 12,7 C 11,7 C 12,2 C 87 % 1024,1 hPa 0,0 l/m 0 min 0 min 0 W/m 2,3 km/h (1 Bft) 95,74 %
02.09.2018 02:38 12,7 C 11,7 C 12,2 C 87 % 1024,1 hPa 0,0 l/m 0 min 0 min 0 W/m 0,0 km/h (0 Bft) 93,62 %
02.09.2018 02:40 12,7 C 11,7 C 12,2 C 87 % 1024,1 hPa 0,0 l/m 0 min 0 min 0 W/m 0,0 km/h (0 Bft) 95,74 %
02.09.2018 02:42 12,7 C 11,7 C 12,2 C 87 % 1024,1 hPa 0,0 l/m 0 min 0 min 0 W/m 0,0 km/h (0 Bft) 95,74 %
02.09.2018 02:44 12,7 C 11,7 C 12,2 C 87 % 1024,1 hPa 0,0 l/m 0 min 0 min 0 W/m 0,0 km/h (0 Bft) 97,83 %
02.09.2018 02:46 12,7 C 11,7 C 12,2 C 87 % 1024,2 hPa 0,0 l/m 0 min 0 min 0 W/m 2,3 km/h (1 Bft) 100,00 %
02.09.2018 02:48 12,6 C 11,7 C 12,2 C 88 % 1024,2 hPa 0,0 l/m 0 min 0 min 0 W/m 0,0 km/h (0 Bft) 97,87 %
02.09.2018 02:50 12,6 C 11,7 C 11,7 C 88 % 1024,2 hPa 0,0 l/m 0 min 0 min 0 W/m 0,0 km/h (0 Bft) 97,87 %
02.09.2018 02:52 12,6 C 11,7 C 12,2 C 88 % 1024,1 hPa 0,0 l/m 0 min 0 min 0 W/m 0,0 km/h (0 Bft) 97,87 %
02.09.2018 02:54 12,6 C 11,7 C 12,2 C 88 % 1024,2 hPa 0,0 l/m 0 min 0 min 0 W/m 2,3 km/h (1 Bft) 100,00 %
02.09.2018 02:56 12,6 C 11,7 C 12,2 C 87 % 1024,1 hPa 0,0 l/m 0 min 0 min 0 W/m 0,0 km/h (0 Bft) 100,00 %
02.09.2018 02:58 12,6 C 11,7 C 12,2 C 88 % 1024,2 hPa 0,0 l/m 0 min 0 min 0 W/m 0,0 km/h (0 Bft) 97,87 %
02.09.2018 03:00 12,6 C 11,7 C 12,2 C 88 % 1024,1 hPa 0,0 l/m 0 min 0 min 0 W/m 0,0 km/h (0 Bft) 100,00 %
02.09.2018 03:02 12,6 C 11,7 C 12,2 C 88 % 1024,1 hPa 0,0 l/m 0 min 0 min 0 W/m 0,0 km/h (0 Bft) 100,00 %
02.09.2018 03:04 12,6 C 11,7 C 11,7 C 88 % 1024,1 hPa 0,0 l/m 0 min 0 min 0 W/m 2,3 km/h (1 Bft) 97,87 %
02.09.2018 03:06 12,6 C 11,7 C 12,2 C 88 % 1024,2 hPa 0,0 l/m 0 min 0 min 0 W/m 2,3 km/h (1 Bft) 97,83 %
02.09.2018 03:08 12,6 C 11,7 C 12,2 C 88 % 1024,2 hPa 0,0 l/m 0 min 0 min 0 W/m 0,0 km/h (0 Bft) 95,74 %
02.09.2018 03:10 12,6 C 11,7 C 11,7 C 88 % 1024,1 hPa 0,0 l/m 0 min 0 min 0 W/m 2,3 km/h (1 Bft) 97,87 %
02.09.2018 03:12 12,6 C 11,7 C 11,7 C 88 % 1024,2 hPa 0,0 l/m 0 min 0 min 0 W/m 0,0 km/h (0 Bft) 97,87 %
02.09.2018 03:14 12,6 C 11,7 C 11,7 C 88 % 1024,2 hPa 0,0 l/m 0 min 0 min 0 W/m 0,0 km/h (0 Bft) 97,87 %
02.09.2018 03:16 12,5 C 11,7 C 11,7 C 88 % 1024,2 hPa 0,0 l/m 0 min 0 min 0 W/m 2,3 km/h (1 Bft) 95,74 %
02.09.2018 03:18 12,5 C 11,7 C 11,7 C 88 % 1024,2 hPa 0,0 l/m 0 min 0 min 0 W/m 0,0 km/h (0 Bft) 95,65 %
02.09.2018 03:20 12,5 C 11,7 C 12,2 C 88 % 1024,2 hPa 0,0 l/m 0 min 0 min 0 W/m 0,0 km/h (0 Bft) 97,87 %
02.09.2018 03:22 12,5 C 11,7 C 12,2 C 88 % 1024,3 hPa 0,0 l/m 0 min 0 min 0 W/m 2,3 km/h (1 Bft) 97,87 %
02.09.2018 03:24 12,5 C 11,7 C 12,2 C 88 % 1024,3 hPa 0,0 l/m 0 min 0 min 0 W/m 2,3 km/h (1 Bft) 97,87 %
02.09.2018 03:26 12,5 C 11,7 C 12,2 C 89 % 1024,2 hPa 0,0 l/m 0 min 0 min 0 W/m 0,0 km/h (0 Bft) 95,74 %
02.09.2018 03:28 12,5 C 11,7 C 12,2 C 89 % 1024,2 hPa 0,0 l/m 0 min 0 min 0 W/m 0,0 km/h (0 Bft) 95,74 %
02.09.2018 03:30 12,5 C 11,7 C 12,2 C 89 % 1024,2 hPa 0,0 l/m 0 min 0 min 0 W/m 0,0 km/h (0 Bft) 95,65 %
02.09.2018 03:32 12,4 C 11,7 C 12,2 C 89 % 1024,2 hPa 0,0 l/m 0 min 0 min 0 W/m 0,0 km/h (0 Bft) 95,92 %
02.09.2018 03:34 12,4 C 11,7 C 12,2 C 89 % 1024,2 hPa 0,0 l/m 0 min 0 min 0 W/m 0,0 km/h (0 Bft) 95,74 %
02.09.2018 03:36 12,4 C 11,7 C 12,2 C 89 % 1024,2 hPa 0,0 l/m 0 min 0 min 0 W/m 2,3 km/h (1 Bft) 97,87 %
02.09.2018 03:38 12,4 C 11,7 C 11,7 C 89 % 1024,2 hPa 0,0 l/m 0 min 0 min 0 W/m 0,0 km/h (0 Bft) 97,87 %
02.09.2018 03:40 12,4 C 11,7 C 11,7 C 89 % 1024,2 hPa 0,0 l/m 0 min 0 min 0 W/m 0,0 km/h (0 Bft) 97,87 %
02.09.2018 03:42 12,4 C 11,7 C 12,2 C 89 % 1024,3 hPa 0,0 l/m 0 min 0 min 0 W/m 0,0 km/h (0 Bft) 97,83 %
02.09.2018 03:44 12,4 C 11,7 C 12,2 C 89 % 1024,2 hPa 0,0 l/m 0 min 0 min 0 W/m 0,0 km/h (0 Bft) 97,87 %
02.09.2018 03:46 12,4 C 11,7 C 11,7 C 89 % 1024,2 hPa 0,0 l/m 0 min 0 min 0 W/m 0,0 km/h (0 Bft) 97,87 %
02.09.2018 03:48 12,4 C 11,7 C 11,7 C 89 % 1024,3 hPa 0,0 l/m 0 min 0 min 0 W/m 0,0 km/h (0 Bft) 97,87 %
02.09.2018 03:50 12,4 C 11,7 C 11,7 C 89 % 1024,3 hPa 0,0 l/m 0 min 0 min 0 W/m 0,0 km/h (0 Bft) 95,74 %
02.09.2018 03:52 12,4 C 11,7 C 11,7 C 89 % 1024,3 hPa 0,0 l/m 0 min 0 min 0 W/m 0,0 km/h (0 Bft) 97,92 %
02.09.2018 03:54 12,4 C 11,7 C 11,7 C 89 % 1024,4 hPa 0,0 l/m 0 min 0 min 0 W/m 0,0 km/h (0 Bft) 100,00 %
02.09.2018 03:56 12,4 C 11,7 C 11,7 C 89 % 1024,3 hPa 0,0 l/m 0 min 0 min 0 W/m 0,0 km/h (0 Bft) 100,00 %
02.09.2018 03:58 12,4 C 11,7 C 11,7 C 90 % 1024,3 hPa 0,0 l/m 0 min 0 min 0 W/m 0,0 km/h (0 Bft) 100,00 %
02.09.2018 04:00 12,4 C 11,7 C 11,7 C 90 % 1024,3 hPa 0,0 l/m 0 min 0 min 0 W/m 0,0 km/h (0 Bft) 97,87 %
02.09.2018 04:02 12,4 C 11,7 C 11,7 C 90 % 1024,3 hPa 0,0 l/m 0 min 0 min 0 W/m 0,0 km/h (0 Bft) 100,00 %
02.09.2018 04:04 12,3 C 11,1 C 11,7 C 90 % 1024,3 hPa 0,0 l/m 0 min 0 min 0 W/m 0,0 km/h (0 Bft) 100,00 %
02.09.2018 04:06 12,3 C 11,1 C 11,7 C 90 % 1024,3 hPa 0,0 l/m 0 min 0 min 0 W/m 0,0 km/h (0 Bft) 100,00 %
02.09.2018 04:08 12,3 C 11,1 C 11,7 C 90 % 1024,2 hPa 0,0 l/m 0 min 0 min 0 W/m 0,0 km/h (0 Bft) 100,00 %
02.09.2018 04:10 12,3 C 11,1 C 11,1 C 90 % 1024,2 hPa 0,0 l/m 0 min 0 min 0 W/m 0,0 km/h (0 Bft) 97,87 %
02.09.2018 04:12 12,3 C 11,1 C 11,1 C 90 % 1024,2 hPa 0,0 l/m 0 min 0 min 0 W/m 0,0 km/h (0 Bft) 97,87 %
02.09.2018 04:14 12,3 C 11,1 C 11,1 C 90 % 1024,2 hPa 0,0 l/m 0 min 0 min 0 W/m 0,0 km/h (0 Bft) 100,00 %
02.09.2018 04:16 12,3 C 11,1 C 11,1 C 90 % 1024,2 hPa 0,0 l/m 0 min 0 min 0 W/m 0,0 km/h (0 Bft) 97,87 %
02.09.2018 04:18 12,2 C 11,1 C 11,1 C 90 % 1024,2 hPa 0,0 l/m 0 min 0 min 0 W/m 0,0 km/h (0 Bft) 97,83 %
02.09.2018 04:20 12,2 C 11,1 C 11,1 C 90 % 1024,1 hPa 0,0 l/m 0 min 0 min 0 W/m 0,0 km/h (0 Bft) 100,00 %
02.09.2018 04:22 12,2 C 11,1 C 11,1 C 90 % 1024,1 hPa 0,0 l/m 0 min 0 min 0 W/m 0,0 km/h (0 Bft) 93,62 %
02.09.2018 04:24 12,2 C 11,1 C 11,1 C 90 % 1024,1 hPa 0,0 l/m 0 min 0 min 0 W/m 0,0 km/h (0 Bft) 97,87 %
02.09.2018 04:26 12,2 C 11,1 C 11,1 C 90 % 1024,1 hPa 0,0 l/m 0 min 0 min 0 W/m 0,0 km/h (0 Bft) 97,87 %
02.09.2018 04:28 12,1 C 11,1 C 11,1 C 90 % 1024,0 hPa 0,0 l/m 0 min 0 min 0 W/m 0,0 km/h (0 Bft) 95,65 %
02.09.2018 04:30 12,1 C 11,1 C 11,1 C 90 % 1024,1 hPa 0,0 l/m 0 min 0 min 0 W/m 0,0 km/h (0 Bft) 95,74 %
02.09.2018 04:32 12,1 C 11,1 C 11,1 C 90 % 1024,1 hPa 0,0 l/m 0 min 0 min 0 W/m 0,0 km/h (0 Bft) 97,87 %
02.09.2018 04:34 12,1 C 11,1 C 11,1 C 90 % 1024,1 hPa 0,0 l/m 0 min 0 min 0 W/m 0,0 km/h (0 Bft) 97,87 %
02.09.2018 04:36 12,1 C 11,1 C 11,1 C 90 % 1024,1 hPa 0,0 l/m 0 min 0 min 0 W/m 0,0 km/h (0 Bft) 97,87 %
02.09.2018 04:38 12,1 C 11,1 C 11,1 C 90 % 1024,1 hPa 0,0 l/m 0 min 0 min 0 W/m 0,0 km/h (0 Bft) 97,87 %
02.09.2018 04:40 12,1 C 11,1 C 11,1 C 90 % 1024,0 hPa 0,0 l/m 0 min 0 min 0 W/m 0,0 km/h (0 Bft) 97,83 %
02.09.2018 04:42 12,0 C 11,1 C 11,1 C 90 % 1024,0 hPa 0,0 l/m 0 min 0 min 0 W/m 0,0 km/h (0 Bft) 97,87 %
02.09.2018 04:44 12,0 C 11,1 C 11,1 C 90 % 1024,0 hPa 0,0 l/m 0 min 0 min 0 W/m 0,0 km/h (0 Bft) 95,74 %
02.09.2018 04:46 12,0 C 10,6 C 10,6 C 90 % 1024,0 hPa 0,0 l/m 0 min 0 min 0 W/m 0,0 km/h (0 Bft) 97,87 %
02.09.2018 04:48 11,9 C 10,6 C 10,6 C 90 % 1023,9 hPa 0,0 l/m 0 min 0 min 0 W/m 0,0 km/h (0 Bft) 97,87 %
02.09.2018 04:50 11,9 C 10,6 C 10,6 C 90 % 1023,9 hPa 0,0 l/m 0 min 0 min 0 W/m 0,0 km/h (0 Bft) 97,87 %
02.09.2018 04:52 11,9 C 10,6 C 10,6 C 90 % 1024,0 hPa 0,0 l/m 0 min 0 min 0 W/m 0,0 km/h (0 Bft) 95,65 %
02.09.2018 04:54 11,9 C 10,6 C 10,6 C 90 % 1024,0 hPa 0,0 l/m 0 min 0 min 0 W/m 0,0 km/h (0 Bft) 95,74 %
02.09.2018 04:56 11,8 C 10,6 C 10,6 C 90 % 1024,0 hPa 0,0 l/m 0 min 0 min 0 W/m 0,0 km/h (0 Bft) 97,87 %
02.09.2018 04:58 11,8 C 10,6 C 10,6 C 90 % 1024,0 hPa 0,0 l/m 0 min 0 min 0 W/m 0,0 km/h (0 Bft) 97,87 %
02.09.2018 05:00 11,8 C 10,6 C 10,6 C 90 % 1023,9 hPa 0,0 l/m 0 min 0 min 0 W/m 0,0 km/h (0 Bft) 95,74 %
02.09.2018 05:02 11,8 C 10,6 C 10,6 C 90 % 1023,9 hPa 0,0 l/m 0 min 0 min 0 W/m 0,0 km/h (0 Bft) 97,87 %
02.09.2018 05:04 11,7 C 10,6 C 10,6 C 90 % 1023,9 hPa 0,0 l/m 0 min 0 min 0 W/m 0,0 km/h (0 Bft) 97,83 %
02.09.2018 05:06 11,7 C 10,6 C 10,6 C 90 % 1023,9 hPa 0,0 l/m 0 min 0 min 0 W/m 0,0 km/h (0 Bft) 95,74 %
02.09.2018 05:08 11,7 C 10,6 C 10,6 C 90 % 1023,9 hPa 0,0 l/m 0 min 0 min 0 W/m 0,0 km/h (0 Bft) 100,00 %
02.09.2018 05:10 11,7 C 10,6 C 10,6 C 90 % 1023,9 hPa 0,0 l/m 0 min 0 min 0 W/m 0,0 km/h (0 Bft) 100,00 %
02.09.2018 05:12 11,6 C 10,6 C 10,6 C 90 % 1023,8 hPa 0,0 l/m 0 min 0 min 0 W/m 0,0 km/h (0 Bft) 100,00 %
02.09.2018 05:14 11,6 C 10,0 C 10,6 C 90 % 1023,8 hPa 0,0 l/m 0 min 0 min 0 W/m 0,0 km/h (0 Bft) 100,00 %
02.09.2018 05:16 11,6 C 10,0 C 10,6 C 90 % 1023,8 hPa 0,0 l/m 0 min 0 min 0 W/m 0,0 km/h (0 Bft) 100,00 %
02.09.2018 05:18 11,6 C 10,0 C 10,6 C 90 % 1023,8 hPa 0,0 l/m 0 min 0 min 0 W/m 0,0 km/h (0 Bft) 100,00 %
02.09.2018 05:20 11,5 C 10,0 C 10,0 C 90 % 1023,8 hPa 0,0 l/m 0 min 0 min 0 W/m 0,0 km/h (0 Bft) 100,00 %
02.09.2018 05:22 11,5 C 10,0 C 10,0 C 90 % 1023,8 hPa 0,0 l/m 0 min 0 min 0 W/m 0,0 km/h (0 Bft) 100,00 %
02.09.2018 05:24 11,4 C 10,0 C 10,0 C 90 % 1023,8 hPa 0,0 l/m 0 min 0 min 0 W/m 0,0 km/h (0 Bft) 100,00 %
02.09.2018 05:26 11,4 C 10,0 C 10,0 C 90 % 1023,8 hPa 0,0 l/m 0 min 0 min 0 W/m 0,0 km/h (0 Bft) 100,00 %
02.09.2018 05:28 11,4 C 10,0 C 10,0 C 90 % 1023,7 hPa 0,0 l/m 0 min 0 min 0 W/m 0,0 km/h (0 Bft) 100,00 %
02.09.2018 05:30 11,4 C 10,0 C 10,0 C 90 % 1023,8 hPa 0,0 l/m 0 min 0 min 0 W/m 0,0 km/h (0 Bft) 100,00 %
02.09.2018 05:32 11,3 C 10,0 C 10,0 C 90 % 1023,8 hPa 0,0 l/m 0 min 0 min 0 W/m 0,0 km/h (0 Bft) 97,30 %
02.09.2018 05:34 11,3 C 10,0 C 10,0 C 90 % 1023,8 hPa 0,0 l/m 0 min 0 min 0 W/m 0,0 km/h (0 Bft) 100,00 %
02.09.2018 05:35 11,3 C 10,0 C 10,0 C 90 % 1023,7 hPa 0,0 l/m 0 min 0 min 0 W/m 0,0 km/h (0 Bft) 100,00 %
02.09.2018 05:40 11,2 C 9,4 C 10,0 C 90 % 1023,6 hPa 0,0 l/m 0 min 0 min 0 W/m 0,0 km/h (0 Bft) 100,00 %
02.09.2018 05:42 11,2 C 9,4 C 10,0 C 90 % 1023,6 hPa 0,0 l/m 0 min 0 min 0 W/m 0,0 km/h (0 Bft) 97,83 %
02.09.2018 05:44 11,2 C 9,4 C 10,0 C 90 % 1023,6 hPa 0,0 l/m 0 min 0 min 0 W/m 0,0 km/h (0 Bft) 100,00 %
02.09.2018 05:46 11,1 C 9,4 C 10,0 C 90 % 1023,6 hPa 0,0 l/m 0 min 0 min 0 W/m 0,0 km/h (0 Bft) 100,00 %
02.09.2018 05:48 11,1 C 9,4 C 10,0 C 90 % 1023,6 hPa 0,0 l/m 0 min 0 min 0 W/m 0,0 km/h (0 Bft) 97,87 %
02.09.2018 05:50 11,1 C 9,4 C 9,4 C 90 % 1023,7 hPa 0,0 l/m 0 min 0 min 0 W/m 0,0 km/h (0 Bft) 100,00 %
02.09.2018 05:52 11,0 C 9,4 C 10,0 C 90 % 1023,7 hPa 0,0 l/m 0 min 0 min 0 W/m 0,0 km/h (0 Bft) 100,00 %
02.09.2018 05:54 11,0 C 9,4 C 9,4 C 90 % 1023,7 hPa 0,0 l/m 0 min 0 min 0 W/m 0,0 km/h (0 Bft) 100,00 %
02.09.2018 05:56 10,9 C 9,4 C 9,4 C 90 % 1023,6 hPa 0,0 l/m 0 min 0 min 0 W/m 0,0 km/h (0 Bft) 97,87 %
02.09.2018 05:58 10,9 C 9,4 C 9,4 C 90 % 1023,7 hPa 0,0 l/m 0 min 0 min 0 W/m 0,0 km/h (0 Bft) 100,00 %
02.09.2018 06:00 10,9 C 9,4 C 9,4 C 90 % 1023,6 hPa 0,0 l/m 0 min 0 min 0 W/m 0,0 km/h (0 Bft) 100,00 %
02.09.2018 06:02 10,8 C 9,4 C 9,4 C 90 % 1023,7 hPa 0,0 l/m 0 min 0 min 0 W/m 0,0 km/h (0 Bft) 95,74 %
02.09.2018 06:04 10,8 C 9,4 C 9,4 C 90 % 1023,7 hPa 0,0 l/m 0 min 0 min 0 W/m 0,0 km/h (0 Bft) 95,65 %
02.09.2018 06:08 10,7 C 9,4 C 9,4 C 90 % 1023,6 hPa 0,0 l/m 0 min 0 min 0 W/m 0,0 km/h (0 Bft) 93,62 %
02.09.2018 06:10 10,7 C 9,4 C 9,4 C 90 % 1023,7 hPa 0,0 l/m 0 min 0 min 0 W/m 0,0 km/h (0 Bft) 97,87 %
02.09.2018 06:12 10,7 C 9,4 C 9,4 C 90 % 1023,6 hPa 0,0 l/m 0 min 0 min 0 W/m 0,0 km/h (0 Bft) 95,74 %
02.09.2018 06:14 10,7 C 9,4 C 9,4 C 90 % 1023,7 hPa 0,0 l/m 0 min 0 min 0 W/m 0,0 km/h (0 Bft) 95,74 %
02.09.2018 06:16 10,6 C 9,4 C 9,4 C 90 % 1023,7 hPa 0,0 l/m 0 min 0 min 0 W/m 0,0 km/h (0 Bft) 93,48 %
02.09.2018 06:18 10,6 C 8,9 C 9,4 C 90 % 1023,7 hPa 0,0 l/m 0 min 0 min 0 W/m 0,0 km/h (0 Bft) 93,62 %
02.09.2018 06:20 10,6 C 8,9 C 9,4 C 90 % 1023,7 hPa 0,0 l/m 0 min 0 min 0 W/m 0,0 km/h (0 Bft) 93,62 %
02.09.2018 06:22 10,5 C 8,9 C 9,4 C 90 % 1023,6 hPa 0,0 l/m 0 min 0 min 0 W/m 0,0 km/h (0 Bft) 95,74 %
02.09.2018 06:24 10,5 C 8,9 C 9,4 C 90 % 1023,6 hPa 0,0 l/m 0 min 0 min 0 W/m 0,0 km/h (0 Bft) 95,74 %
02.09.2018 06:26 10,4 C 8,9 C 9,4 C 91 % 1023,6 hPa 0,0 l/m 0 min 0 min 0 W/m 0,0 km/h (0 Bft) 93,48 %
02.09.2018 06:28 10,4 C 8,9 C 9,4 C 91 % 1023,6 hPa 0,0 l/m 0 min 0 min 0 W/m 0,0 km/h (0 Bft) 93,62 %
02.09.2018 06:30 10,4 C 8,9 C 9,4 C 91 % 1023,5 hPa 0,0 l/m 0 min 0 min 0 W/m 0,0 km/h (0 Bft) 93,62 %
02.09.2018 06:32 10,4 C 8,9 C 9,4 C 91 % 1023,5 hPa 0,0 l/m 0 min 0 min 0 W/m 0,0 km/h (0 Bft) 95,92 %
02.09.2018 06:34 10,3 C 8,9 C 9,4 C 91 % 1023,5 hPa 0,0 l/m 0 min 0 min 0 W/m 0,0 km/h (0 Bft) 95,74 %
02.09.2018 06:36 10,3 C 8,9 C 9,4 C 91 % 1023,4 hPa 0,0 l/m 0 min 0 min 0 W/m 0,0 km/h (0 Bft) 89,19 %
02.09.2018 06:38 10,3 C 8,9 C 9,4 C 91 % 1023,4 hPa 0,0 l/m 0 min 0 min 0 W/m 0,0 km/h (0 Bft) 95,74 %
02.09.2018 06:40 10,2 C 8,9 C 9,4 C 90 % 1023,4 hPa 0,0 l/m 0 min 0 min 0 W/m 0,0 km/h (0 Bft) 93,48 %
02.09.2018 06:42 10,2 C 8,9 C 8,9 C 90 % 1023,4 hPa 0,0 l/m 0 min 0 min 0 W/m 0,0 km/h (0 Bft) 93,62 %
02.09.2018 06:44 10,2 C 8,9 C 8,9 C 90 % 1023,4 hPa 0,0 l/m 0 min 0 min 0 W/m 0,0 km/h (0 Bft) 91,49 %
02.09.2018 06:46 10,2 C 8,9 C 8,9 C 90 % 1023,4 hPa 0,0 l/m 0 min 0 min 0 W/m 0,0 km/h (0 Bft) 93,62 %
02.09.2018 06:48 10,1 C 8,9 C 8,9 C 90 % 1023,4 hPa 0,0 l/m 0 min 0 min 3 W/m 0,0 km/h (0 Bft) 93,62 %
02.09.2018 06:50 10,1 C 8,9 C 8,9 C 91 % 1023,4 hPa 0,0 l/m 0 min 0 min 5 W/m 0,0 km/h (0 Bft) 93,62 %
02.09.2018 06:52 10,1 C 8,9 C 8,9 C 91 % 1023,4 hPa 0,0 l/m 0 min 0 min 5 W/m 0,0 km/h (0 Bft) 93,10 %
02.09.2018 06:54 10,1 C 8,9 C 8,9 C 91 % 1023,4 hPa 0,0 l/m 0 min 0 min 6 W/m 0,0 km/h (0 Bft) 97,14 %
02.09.2018 06:56 10,0 C 8,9 C 8,9 C 91 % 1023,5 hPa 0,0 l/m 0 min 0 min 7 W/m 0,0 km/h (0 Bft) 95,74 %
02.09.2018 06:58 10,0 C 8,9 C 8,9 C 91 % 1023,5 hPa 0,0 l/m 0 min 0 min 8 W/m 0,0 km/h (0 Bft) 95,74 %
02.09.2018 07:00 9,9 C 8,9 C 8,9 C 91 % 1023,4 hPa 0,0 l/m 0 min 0 min 9 W/m 0,0 km/h (0 Bft) 95,74 %
02.09.2018 07:02 9,9 C 8,9 C 9,4 C 90 % 1023,5 hPa 0,0 l/m 0 min 0 min 10 W/m 0,0 km/h (0 Bft) 90,00 %
02.09.2018 07:04 9,9 C 9,4 C 9,4 C 91 % 1023,4 hPa 0,0 l/m 0 min 0 min 11 W/m 0,0 km/h (0 Bft) 95,65 %
02.09.2018 07:06 9,9 C 9,4 C 9,4 C 91 % 1023,4 hPa 0,0 l/m 0 min 0 min 12 W/m 0,0 km/h (0 Bft) 96,00 %
02.09.2018 07:08 9,9 C 9,4 C 9,4 C 91 % 1023,4 hPa 0,0 l/m 0 min 0 min 12 W/m 0,0 km/h (0 Bft) 95,74 %
02.09.2018 07:10 9,9 C 9,4 C 9,4 C 91 % 1023,4 hPa 0,0 l/m 0 min 0 min 14 W/m 0,0 km/h (0 Bft) 93,62 %
02.09.2018 07:12 9,8 C 9,4 C 9,4 C 91 % 1023,4 hPa 0,0 l/m 0 min 0 min 14 W/m 0,0 km/h (0 Bft) 93,62 %
02.09.2018 07:14 9,8 C 9,4 C 9,4 C 91 % 1023,4 hPa 0,0 l/m 0 min 0 min 16 W/m 0,0 km/h (0 Bft) 95,65 %
02.09.2018 07:16 9,8 C 9,4 C 9,4 C 91 % 1023,4 hPa 0,0 l/m 0 min 0 min 16 W/m 0,0 km/h (0 Bft) 95,74 %
02.09.2018 07:18 9,8 C 9,4 C 9,4 C 91 % 1023,4 hPa 0,0 l/m 0 min 0 min 18 W/m 0,0 km/h (0 Bft) 97,87 %
02.09.2018 07:20 9,8 C 9,4 C 9,4 C 92 % 1023,3 hPa 0,0 l/m 0 min 0 min 18 W/m 0,0 km/h (0 Bft) 97,87 %
02.09.2018 07:22 9,8 C 9,4 C 9,4 C 92 % 1023,3 hPa 0,0 l/m 0 min 0 min 19 W/m 0,0 km/h (0 Bft) 100,00 %
02.09.2018 07:24 9,8 C 9,4 C 9,4 C 92 % 1023,4 hPa 0,0 l/m 0 min 0 min 20 W/m 0,0 km/h (0 Bft) 100,00 %
02.09.2018 07:26 9,8 C 10,0 C 9,4 C 92 % 1023,3 hPa 0,0 l/m 0 min 0 min 21 W/m 0,0 km/h (0 Bft) 100,00 %
02.09.2018 07:28 9,9 C 10,0 C 9,4 C 92 % 1023,4 hPa 0,0 l/m 0 min 0 min 22 W/m 0,0 km/h (0 Bft) 95,74 %
02.09.2018 07:30 9,9 C 10,0 C 9,4 C 92 % 1023,4 hPa 0,0 l/m 0 min 0 min 23 W/m 0,0 km/h (0 Bft) 97,87 %
02.09.2018 07:32 9,9 C 10,0 C 9,4 C 92 % 1023,4 hPa 0,0 l/m 0 min 0 min 24 W/m 0,0 km/h (0 Bft) 98,11 %
02.09.2018 07:34 9,9 C 10,0 C 9,4 C 92 % 1023,4 hPa 0,0 l/m 0 min 0 min 25 W/m 0,0 km/h (0 Bft) 100,00 %
02.09.2018 07:36 9,9 C 10,0 C 9,4 C 93 % 1023,5 hPa 0,0 l/m 0 min 0 min 26 W/m 0,0 km/h (0 Bft) 100,00 %
02.09.2018 07:38 9,9 C 10,0 C 10,0 C 93 % 1023,5 hPa 0,0 l/m 0 min 0 min 26 W/m 0,0 km/h (0 Bft) 100,00 %
02.09.2018 07:40 10,0 C 10,0 C 10,0 C 93 % 1023,5 hPa 0,0 l/m 0 min 0 min 27 W/m 0,0 km/h (0 Bft) 97,87 %
02.09.2018 07:42 10,0 C 10,0 C 10,0 C 93 % 1023,5 hPa 0,0 l/m 0 min 0 min 28 W/m 0,0 km/h (0 Bft) 100,00 %
02.09.2018 07:44 10,0 C 10,0 C 10,0 C 93 % 1023,5 hPa 0,0 l/m 0 min 0 min 29 W/m 0,0 km/h (0 Bft) 100,00 %
02.09.2018 07:46 10,1 C 10,6 C 10,0 C 93 % 1023,6 hPa 0,0 l/m 0 min 0 min 30 W/m 0,0 km/h (0 Bft) 100,00 %
02.09.2018 07:48 10,1 C 10,6 C 10,0 C 93 % 1023,5 hPa 0,0 l/m 0 min 0 min 32 W/m 0,0 km/h (0 Bft) 100,00 %
02.09.2018 07:50 10,1 C 10,6 C 10,6 C 94 % 1023,6 hPa 0,0 l/m 0 min 0 min 32 W/m 0,0 km/h (0 Bft) 100,00 %
02.09.2018 07:52 10,2 C 10,6 C 10,6 C 94 % 1023,6 hPa 0,0 l/m 0 min 0 min 33 W/m 0,0 km/h (0 Bft) 100,00 %
02.09.2018 07:54 10,2 C 10,6 C 10,6 C 94 % 1023,6 hPa 0,0 l/m 0 min 0 min 35 W/m 0,0 km/h (0 Bft) 100,00 %
02.09.2018 07:56 10,3 C 11,1 C 10,6 C 94 % 1023,5 hPa 0,0 l/m 0 min 0 min 35 W/m 0,0 km/h (0 Bft) 100,00 %
02.09.2018 07:58 10,3 C 11,1 C 10,6 C 94 % 1023,5 hPa 0,0 l/m 0 min 0 min 36 W/m 0,0 km/h (0 Bft) 97,87 %
02.09.2018 08:00 10,4 C 11,1 C 10,6 C 94 % 1023,5 hPa 0,0 l/m 0 min 0 min 37 W/m 0,0 km/h (0 Bft) 100,00 %
02.09.2018 08:02 10,4 C 11,1 C 10,6 C 94 % 1023,6 hPa 0,0 l/m 0 min 0 min 39 W/m 0,0 km/h (0 Bft) 100,00 %
02.09.2018 08:04 10,4 C 11,1 C 10,6 C 94 % 1023,5 hPa 0,0 l/m 0 min 0 min 40 W/m 0,0 km/h (0 Bft) 97,87 %
02.09.2018 08:06 10,5 C 11,1 C 11,1 C 94 % 1023,6 hPa 0,0 l/m 0 min 0 min 40 W/m 2,3 km/h (1 Bft) 100,00 %
02.09.2018 08:08 10,6 C 11,7 C 11,1 C 94 % 1023,6 hPa 0,0 l/m 0 min 0 min 42 W/m 4,5 km/h (1 Bft) 97,87 %
02.09.2018 08:10 10,7 C 11,7 C 11,1 C 95 % 1023,6 hPa 0,0 l/m 0 min 0 min 43 W/m 4,5 km/h (1 Bft) 100,00 %
02.09.2018 08:12 10,7 C 11,7 C 11,1 C 95 % 1023,6 hPa 0,0 l/m 0 min 0 min 45 W/m 2,3 km/h (1 Bft) 100,00 %
02.09.2018 08:14 10,8 C 11,7 C 11,1 C 95 % 1023,6 hPa 0,0 l/m 0 min 0 min 46 W/m 2,3 km/h (1 Bft) 100,00 %
02.09.2018 08:16 10,8 C 11,7 C 11,1 C 95 % 1023,6 hPa 0,0 l/m 0 min 0 min 47 W/m 2,3 km/h (1 Bft) 97,87 %
02.09.2018 08:18 10,9 C 11,7 C 11,7 C 95 % 1023,6 hPa 0,0 l/m 0 min 0 min 47 W/m 2,3 km/h (1 Bft) 100,00 %
02.09.2018 08:20 11,0 C 12,2 C 11,7 C 95 % 1023,6 hPa 0,0 l/m 0 min 0 min 47 W/m 6,8 km/h (2 Bft) 100,00 %
02.09.2018 08:22 11,1 C 12,2 C 11,7 C 95 % 1023,6 hPa 0,0 l/m 0 min 0 min 48 W/m 2,3 km/h (1 Bft) 100,00 %
02.09.2018 08:24 11,1 C 12,2 C 11,7 C 95 % 1023,6 hPa 0,0 l/m 0 min 0 min 49 W/m 2,3 km/h (1 Bft) 100,00 %
02.09.2018 08:26 11,2 C 12,2 C 11,7 C 95 % 1023,7 hPa 0,0 l/m 0 min 0 min 49 W/m 2,3 km/h (1 Bft) 100,00 %
02.09.2018 08:28 11,2 C 12,2 C 11,7 C 96 % 1023,7 hPa 0,0 l/m 0 min 0 min 49 W/m 0,0 km/h (0 Bft) 100,00 %
02.09.2018 08:30 11,3 C 12,2 C 11,7 C 96 % 1023,7 hPa 0,0 l/m 0 min 0 min 49 W/m 4,5 km/h (1 Bft) 100,00 %
02.09.2018 08:32 11,4 C 12,2 C 11,7 C 96 % 1023,7 hPa 0,0 l/m 0 min 0 min 51 W/m 4,5 km/h (1 Bft) 97,87 %
02.09.2018 08:34 11,4 C 12,2 C 12,2 C 96 % 1023,8 hPa 0,0 l/m 0 min 0 min 51 W/m 4,5 km/h (1 Bft) 100,00 %
02.09.2018 08:36 11,5 C 12,2 C 12,2 C 96 % 1023,8 hPa 0,0 l/m 0 min 0 min 52 W/m 4,5 km/h (1 Bft) 100,00 %
02.09.2018 08:38 11,6 C 12,8 C 12,2 C 96 % 1023,8 hPa 0,0 l/m 0 min 0 min 53 W/m 4,5 km/h (1 Bft) 100,00 %
02.09.2018 08:40 11,6 C 12,8 C 12,2 C 96 % 1023,7 hPa 0,0 l/m 0 min 0 min 53 W/m 6,8 km/h (2 Bft) 100,00 %
02.09.2018 08:42 11,7 C 12,8 C 12,2 C 96 % 1023,7 hPa 0,0 l/m 0 min 0 min 54 W/m 6,8 km/h (2 Bft) 97,87 %
02.09.2018 08:44 11,7 C 12,8 C 12,2 C 96 % 1023,8 hPa 0,0 l/m 0 min 0 min 54 W/m 9,0 km/h (2 Bft) 100,00 %
02.09.2018 08:46 11,8 C 12,8 C 12,2 C 96 % 1023,8 hPa 0,0 l/m 0 min 0 min 55 W/m 2,3 km/h (1 Bft) 98,08 %
02.09.2018 08:48 11,8 C 12,8 C 12,2 C 96 % 1023,8 hPa 0,0 l/m 0 min 0 min 56 W/m 9,0 km/h (2 Bft) 100,00 %
02.09.2018 08:50 11,9 C 12,8 C 12,2 C 96 % 1023,8 hPa 0,0 l/m 0 min 0 min 57 W/m 6,8 km/h (2 Bft) 97,87 %
02.09.2018 08:52 11,9 C 13,3 C 12,2 C 96 % 1023,8 hPa 0,0 l/m 0 min 0 min 58 W/m 2,3 km/h (1 Bft) 93,62 %
02.09.2018 08:54 12,0 C 13,3 C 12,2 C 96 % 1023,7 hPa 0,0 l/m 0 min 0 min 59 W/m 2,3 km/h (1 Bft) 95,74 %
02.09.2018 08:56 12,1 C 13,3 C 12,8 C 96 % 1023,8 hPa 0,0 l/m 0 min 0 min 60 W/m 4,5 km/h (1 Bft) 97,87 %
02.09.2018 08:58 12,1 C 13,3 C 12,8 C 96 % 1023,8 hPa 0,0 l/m 0 min 0 min 61 W/m 4,5 km/h (1 Bft) 95,65 %
02.09.2018 09:00 12,2 C 13,3 C 12,8 C 96 % 1023,8 hPa 0,0 l/m 0 min 0 min 62 W/m 4,5 km/h (1 Bft) 91,67 %
02.09.2018 09:02 12,2 C 13,9 C 12,8 C 96 % 1023,8 hPa 0,0 l/m 0 min 0 min 62 W/m 4,5 km/h (1 Bft) 96,15 %
02.09.2018 09:04 12,3 C 13,9 C 12,8 C 96 % 1023,8 hPa 0,0 l/m 0 min 0 min 62 W/m 4,5 km/h (1 Bft) 91,49 %
02.09.2018 09:06 12,3 C 13,9 C 12,8 C 96 % 1023,8 hPa 0,0 l/m 0 min 0 min 62 W/m 2,3 km/h (1 Bft) 95,74 %
02.09.2018 09:08 12,4 C 13,9 C 12,8 C 96 % 1023,7 hPa 0,0 l/m 0 min 0 min 63 W/m 4,5 km/h (1 Bft) 95,74 %
02.09.2018 09:10 12,4 C 13,9 C 12,8 C 96 % 1023,7 hPa 0,0 l/m 0 min 0 min 63 W/m 2,3 km/h (1 Bft) 95,65 %
02.09.2018 09:12 12,5 C 14,4 C 12,8 C 96 % 1023,7 hPa 0,0 l/m 0 min 0 min 63 W/m 2,3 km/h (1 Bft) 95,74 %
02.09.2018 09:14 12,5 C 15,0 C 12,8 C 97 % 1023,8 hPa 0,0 l/m 0 min 0 min 63 W/m 2,3 km/h (1 Bft) 95,74 %
02.09.2018 09:16 12,6 C 15,6 C 13,3 C 97 % 1023,7 hPa 0,0 l/m 0 min 0 min 63 W/m 4,5 km/h (1 Bft) 95,74 %
02.09.2018 09:18 12,7 C 15,6 C 13,3 C 97 % 1023,7 hPa 0,0 l/m 0 min 0 min 64 W/m 4,5 km/h (1 Bft) 95,74 %
02.09.2018 09:20 12,7 C 15,6 C 13,3 C 96 % 1023,7 hPa 0,0 l/m 0 min 0 min 84 W/m 4,5 km/h (1 Bft) 93,62 %
02.09.2018 09:22 12,8 C 15,6 C 13,3 C 96 % 1023,8 hPa 0,0 l/m 2 min 0 min 207 W/m 4,5 km/h (1 Bft) 95,65 %
02.09.2018 09:24 12,8 C 15,6 C 13,3 C 96 % 1023,7 hPa 0,0 l/m 2 min 0 min 263 W/m 2,3 km/h (1 Bft) 95,74 %
02.09.2018 09:26 12,9 C 15,6 C 13,3 C 97 % 1023,7 hPa 0,0 l/m 2 min 0 min 269 W/m 4,5 km/h (1 Bft) 93,62 %
02.09.2018 09:28 12,9 C 15,6 C 13,3 C 97 % 1023,7 hPa 0,0 l/m 2 min 0 min 275 W/m 4,5 km/h (1 Bft) 95,74 %
02.09.2018 09:30 13,0 C 15,6 C 13,3 C 97 % 1023,7 hPa 0,0 l/m 2 min 0 min 280 W/m 2,3 km/h (1 Bft) 95,74 %
02.09.2018 09:32 13,1 C 16,1 C 13,9 C 97 % 1023,7 hPa 0,0 l/m 2 min 0 min 284 W/m 0,0 km/h (0 Bft) 95,83 %
02.09.2018 09:34 13,2 C 17,8 C 13,9 C 97 % 1023,7 hPa 0,0 l/m 2 min 0 min 291 W/m 4,5 km/h (1 Bft) 95,65 %
02.09.2018 09:36 13,2 C 18,3 C 13,9 C 96 % 1023,7 hPa 0,0 l/m 2 min 0 min 296 W/m 2,3 km/h (1 Bft) 97,62 %
02.09.2018 09:38 13,3 C 19,4 C 13,9 C 97 % 1023,7 hPa 0,0 l/m 2 min 0 min 305 W/m 6,8 km/h (2 Bft) 95,74 %
02.09.2018 09:40 13,4 C 19,4 C 13,9 C 97 % 1023,7 hPa 0,0 l/m 2 min 0 min 313 W/m 6,8 km/h (2 Bft) 97,87 %
02.09.2018 09:42 13,4 C 20,0 C 13,9 C 96 % 1023,7 hPa 0,0 l/m 2 min 0 min 321 W/m 2,3 km/h (1 Bft) 95,74 %
02.09.2018 09:44 13,5 C 20,6 C 13,9 C 96 % 1023,7 hPa 0,0 l/m 2 min 0 min 329 W/m 2,3 km/h (1 Bft) 97,87 %
02.09.2018 09:46 13,6 C 21,7 C 13,9 C 97 % 1023,8 hPa 0,0 l/m 2 min 0 min 334 W/m 2,3 km/h (1 Bft) 95,74 %
02.09.2018 09:48 13,6 C 21,7 C 13,9 C 97 % 1023,8 hPa 0,0 l/m 2 min 0 min 339 W/m 4,5 km/h (1 Bft) 95,65 %
02.09.2018 09:50 13,7 C 20,6 C 13,9 C 97 % 1023,7 hPa 0,0 l/m 2 min 0 min 344 W/m 4,5 km/h (1 Bft) 93,62 %
02.09.2018 09:52 13,8 C 19,4 C 14,4 C 96 % 1023,7 hPa 0,0 l/m 2 min 0 min 348 W/m 4,5 km/h (1 Bft) 93,75 %
02.09.2018 09:54 13,9 C 18,9 C 14,4 C 96 % 1023,7 hPa 0,0 l/m 2 min 0 min 356 W/m 2,3 km/h (1 Bft) 95,74 %
02.09.2018 09:56 14,1 C 18,3 C 14,4 C 96 % 1023,7 hPa 0,0 l/m 2 min 0 min 362 W/m 2,3 km/h (1 Bft) 95,74 %
02.09.2018 09:58 14,2 C 18,3 C 14,4 C 96 % 1023,6 hPa 0,0 l/m 2 min 0 min 367 W/m 2,3 km/h (1 Bft) 95,65 %
02.09.2018 10:00 14,2 C 18,3 C 14,4 C 96 % 1023,6 hPa 0,0 l/m 2 min 0 min 375 W/m 4,5 km/h (1 Bft) 95,74 %
02.09.2018 10:02 14,3 C 18,3 C 14,4 C 96 % 1023,6 hPa 0,0 l/m 2 min 0 min 381 W/m 4,5 km/h (1 Bft) 98,00 %
02.09.2018 10:04 14,4 C 18,3 C 14,4 C 96 % 1023,6 hPa 0,0 l/m 2 min 0 min 386 W/m 0,0 km/h (0 Bft) 97,87 %
02.09.2018 10:06 14,6 C 18,3 C 15,0 C 96 % 1023,6 hPa 0,0 l/m 2 min 0 min 390 W/m 4,5 km/h (1 Bft) 97,92 %
02.09.2018 10:08 14,7 C 18,3 C 15,0 C 95 % 1023,6 hPa 0,0 l/m 2 min 0 min 392 W/m 6,8 km/h (2 Bft) 97,83 %
02.09.2018 10:10 14,8 C 18,9 C 15,0 C 95 % 1023,6 hPa 0,0 l/m 2 min 0 min 398 W/m 6,8 km/h (2 Bft) 97,87 %
02.09.2018 10:12 14,9 C 19,4 C 15,6 C 95 % 1023,6 hPa 0,0 l/m 2 min 0 min 404 W/m 4,5 km/h (1 Bft) 95,74 %
02.09.2018 10:14 15,1 C 20,6 C 15,6 C 94 % 1023,6 hPa 0,0 l/m 2 min 0 min 410 W/m 6,8 km/h (2 Bft) 95,74 %
02.09.2018 10:16 15,2 C 22,2 C 15,6 C 93 % 1023,6 hPa 0,0 l/m 2 min 0 min 414 W/m 4,5 km/h (1 Bft) 97,87 %
02.09.2018 10:18 15,4 C 23,9 C 15,6 C 92 % 1023,5 hPa 0,0 l/m 2 min 0 min 422 W/m 4,5 km/h (1 Bft) 97,87 %
02.09.2018 10:20 15,5 C 25,6 C 15,6 C 92 % 1023,6 hPa 0,0 l/m 2 min 0 min 426 W/m 0,0 km/h (0 Bft) 95,65 %
02.09.2018 10:22 15,6 C 26,1 C 15,6 C 91 % 1023,5 hPa 0,0 l/m 2 min 0 min 432 W/m 4,5 km/h (1 Bft) 97,87 %
02.09.2018 10:24 15,8 C 26,1 C 16,1 C 90 % 1023,5 hPa 0,0 l/m 2 min 0 min 437 W/m 6,8 km/h (2 Bft) 95,74 %
02.09.2018 10:26 15,9 C 26,7 C 15,6 C 89 % 1023,5 hPa 0,0 l/m 2 min 0 min 441 W/m 6,8 km/h (2 Bft) 93,62 %
02.09.2018 10:28 16,1 C 26,7 C 16,1 C 88 % 1023,5 hPa 0,0 l/m 2 min 0 min 448 W/m 9,0 km/h (2 Bft) 100,00 %
02.09.2018 10:30 16,3 C 27,2 C 16,1 C 87 % 1023,5 hPa 0,0 l/m 2 min 0 min 452 W/m 6,8 km/h (2 Bft) 100,00 %
02.09.2018 10:32 16,6 C 27,2 C 16,1 C 86 % 1023,5 hPa 0,0 l/m 2 min 0 min 457 W/m 6,8 km/h (2 Bft) 100,00 %
02.09.2018 10:34 16,7 C 27,2 C 16,7 C 85 % 1023,4 hPa 0,0 l/m 2 min 0 min 458 W/m 9,0 km/h (2 Bft) 95,74 %
02.09.2018 10:36 16,9 C 27,8 C 16,7 C 84 % 1023,4 hPa 0,0 l/m 2 min 0 min 463 W/m 9,0 km/h (2 Bft) 100,00 %
02.09.2018 10:38 17,2 C 25,6 C 16,7 C 83 % 1023,5 hPa 0,0 l/m 2 min 0 min 468 W/m 11,3 km/h (2 Bft) 100,00 %
02.09.2018 10:40 17,4 C 26,7 C 16,7 C 81 % 1023,5 hPa 0,0 l/m 2 min 0 min 474 W/m 9,0 km/h (2 Bft) 100,00 %
02.09.2018 10:42 17,6 C 26,7 C 16,7 C 80 % 1023,5 hPa 0,0 l/m 2 min 0 min 481 W/m 9,0 km/h (2 Bft) 100,00 %
02.09.2018 10:44 17,9 C 26,7 C 16,7 C 78 % 1023,4 hPa 0,0 l/m 2 min 0 min 483 W/m 13,5 km/h (3 Bft) 100,00 %
02.09.2018 10:46 18,1 C 27,2 C 17,2 C 77 % 1023,4 hPa 0,0 l/m 2 min 0 min 489 W/m 9,0 km/h (2 Bft) 100,00 %
02.09.2018 10:48 18,3 C 27,2 C 16,7 C 77 % 1023,3 hPa 0,0 l/m 2 min 0 min 494 W/m 9,0 km/h (2 Bft) 100,00 %
02.09.2018 10:50 18,6 C 27,8 C 17,2 C 75 % 1023,3 hPa 0,0 l/m 2 min 0 min 499 W/m 6,8 km/h (2 Bft) 100,00 %
02.09.2018 10:52 18,8 C 28,3 C 17,2 C 75 % 1023,3 hPa 0,0 l/m 2 min 0 min 501 W/m 4,5 km/h (1 Bft) 100,00 %
02.09.2018 10:54 19,0 C 28,9 C 17,2 C 74 % 1023,3 hPa 0,0 l/m 2 min 0 min 506 W/m 18,0 km/h (3 Bft) 97,87 %
02.09.2018 10:56 19,2 C 28,9 C 17,2 C 73 % 1023,3 hPa 0,0 l/m 2 min 0 min 510 W/m 6,8 km/h (2 Bft) 95,65 %
02.09.2018 10:58 19,4 C 29,4 C 17,2 C 73 % 1023,4 hPa 0,0 l/m 2 min 0 min 512 W/m 11,3 km/h (2 Bft) 95,74 %
02.09.2018 11:00 19,6 C 28,9 C 17,2 C 72 % 1023,2 hPa 0,0 l/m 2 min 0 min 436 W/m 11,3 km/h (2 Bft) 97,87 %
02.09.2018 11:02 19,8 C 27,8 C 17,2 C 70 % 1023,4 hPa 0,0 l/m 0 min 0 min 274 W/m 6,8 km/h (2 Bft) 97,14 %
02.09.2018 11:04 20,0 C 28,3 C 17,8 C 69 % 1023,4 hPa 0,0 l/m 2 min 0 min 509 W/m 9,0 km/h (2 Bft) 98,11 %
02.09.2018 11:06 20,2 C 28,9 C 17,8 C 69 % 1023,4 hPa 0,0 l/m 2 min 0 min 524 W/m 9,0 km/h (2 Bft) 94,00 %
02.09.2018 11:08 20,3 C 28,9 C 17,8 C 68 % 1023,3 hPa 0,0 l/m 2 min 0 min 527 W/m 9,0 km/h (2 Bft) 97,87 %
02.09.2018 11:10 20,5 C 28,3 C 17,8 C 68 % 1023,5 hPa 0,0 l/m 2 min 0 min 531 W/m 9,0 km/h (2 Bft) 95,65 %
02.09.2018 11:12 20,7 C 28,9 C 17,8 C 68 % 1023,3 hPa 0,0 l/m 2 min 0 min 534 W/m 9,0 km/h (2 Bft) 97,87 %
02.09.2018 11:14 20,8 C 28,3 C 17,8 C 67 % 1023,3 hPa 0,0 l/m 2 min 0 min 538 W/m 13,5 km/h (3 Bft) 97,87 %
02.09.2018 11:16 20,9 C 27,8 C 17,8 C 66 % 1023,3 hPa 0,0 l/m 2 min 0 min 541 W/m 9,0 km/h (2 Bft) 97,87 %
02.09.2018 11:18 21,0 C 28,3 C 18,3 C 66 % 1023,3 hPa 0,0 l/m 2 min 0 min 546 W/m 6,8 km/h (2 Bft) 97,87 %
02.09.2018 11:20 21,1 C 28,3 C 18,3 C 66 % 1023,3 hPa 0,0 l/m 2 min 0 min 549 W/m 13,5 km/h (3 Bft) 97,83 %
02.09.2018 11:22 21,2 C 29,4 C 18,3 C 67 % 1023,2 hPa 0,0 l/m 2 min 0 min 553 W/m 4,5 km/h (1 Bft) 95,74 %
02.09.2018 11:24 21,3 C 30,0 C 18,3 C 66 % 1023,3 hPa 0,0 l/m 2 min 0 min 556 W/m 11,3 km/h (2 Bft) 97,87 %
02.09.2018 11:26 21,4 C 30,0 C 18,3 C 65 % 1023,3 hPa 0,0 l/m 2 min 0 min 560 W/m 9,0 km/h (2 Bft) 95,74 %
02.09.2018 11:28 21,6 C 28,9 C 18,3 C 64 % 1023,2 hPa 0,0 l/m 2 min 0 min 565 W/m 13,5 km/h (3 Bft) 97,87 %
02.09.2018 11:30 21,7 C 28,9 C 18,3 C 63 % 1023,2 hPa 0,0 l/m 2 min 0 min 568 W/m 11,3 km/h (2 Bft) 97,87 %
02.09.2018 11:32 21,7 C 28,9 C 18,3 C 62 % 1023,2 hPa 0,0 l/m 2 min 0 min 572 W/m 13,5 km/h (3 Bft) 100,00 %
02.09.2018 11:34 21,8 C 28,3 C 18,3 C 62 % 1023,1 hPa 0,0 l/m 2 min 0 min 573 W/m 13,5 km/h (3 Bft) 100,00 %
02.09.2018 11:36 21,9 C 28,9 C 18,3 C 62 % 1023,2 hPa 0,0 l/m 2 min 0 min 576 W/m 9,0 km/h (2 Bft) 100,00 %
02.09.2018 11:38 21,9 C 28,9 C 18,9 C 61 % 1023,1 hPa 0,0 l/m 2 min 0 min 581 W/m 9,0 km/h (2 Bft) 97,87 %
02.09.2018 11:40 22,0 C 28,9 C 18,9 C 61 % 1023,2 hPa 0,0 l/m 2 min 0 min 585 W/m 11,3 km/h (2 Bft) 100,00 %
02.09.2018 11:42 22,1 C 28,9 C 18,9 C 60 % 1023,1 hPa 0,0 l/m 2 min 0 min 589 W/m 20,3 km/h (4 Bft) 100,00 %
02.09.2018 11:44 22,1 C 28,9 C 18,9 C 59 % 1023,1 hPa 0,0 l/m 2 min 0 min 594 W/m 11,3 km/h (2 Bft) 100,00 %
02.09.2018 11:46 22,2 C 28,9 C 18,9 C 59 % 1023,1 hPa 0,0 l/m 2 min 0 min 596 W/m 18,0 km/h (3 Bft) 100,00 %
02.09.2018 11:48 22,2 C 28,9 C 18,9 C 59 % 1023,1 hPa 0,0 l/m 2 min 0 min 604 W/m 13,5 km/h (3 Bft) 100,00 %
02.09.2018 11:50 22,2 C 28,9 C 18,9 C 58 % 1023,1 hPa 0,0 l/m 2 min 0 min 606 W/m 11,3 km/h (2 Bft) 100,00 %
02.09.2018 11:52 22,3 C 29,4 C 18,9 C 59 % 1023,1 hPa 0,0 l/m 2 min 0 min 610 W/m 6,8 km/h (2 Bft) 100,00 %
02.09.2018 11:54 22,3 C 30,0 C 19,4 C 59 % 1023,1 hPa 0,0 l/m 2 min 0 min 368 W/m 9,0 km/h (2 Bft) 100,00 %
02.09.2018 11:56 22,4 C 30,0 C 19,4 C 58 % 1023,0 hPa 0,0 l/m 0 min 0 min 294 W/m 15,8 km/h (3 Bft) 100,00 %
02.09.2018 11:58 22,4 C 29,4 C 18,9 C 57 % 1023,0 hPa 0,0 l/m 2 min 0 min 350 W/m 13,5 km/h (3 Bft) 100,00 %
02.09.2018 12:00 22,5 C 28,9 C 19,4 C 56 % 1022,9 hPa 0,0 l/m 2 min 0 min 628 W/m 24,8 km/h (4 Bft) 97,87 %
02.09.2018 12:02 22,5 C 29,4 C 19,4 C 56 % 1022,9 hPa 0,0 l/m 2 min 0 min 619 W/m 13,5 km/h (3 Bft) 97,87 %
02.09.2018 12:04 22,6 C 30,6 C 19,4 C 57 % 1022,9 hPa 0,0 l/m 2 min 0 min 373 W/m 6,8 km/h (2 Bft) 100,00 %
02.09.2018 12:06 22,6 C 30,6 C 19,4 C 57 % 1022,9 hPa 0,0 l/m 2 min 0 min 447 W/m 9,0 km/h (2 Bft) 100,00 %
02.09.2018 12:08 22,7 C 30,6 C 19,4 C 57 % 1022,9 hPa 0,0 l/m 0 min 0 min 268 W/m 9,0 km/h (2 Bft) 100,00 %
02.09.2018 12:10 22,8 C 30,6 C 19,4 C 56 % 1022,8 hPa 0,0 l/m 0 min 0 min 294 W/m 13,5 km/h (3 Bft) 100,00 %
02.09.2018 12:12 22,8 C 30,0 C 20,0 C 56 % 1022,9 hPa 0,0 l/m 0 min 0 min 294 W/m 13,5 km/h (3 Bft) 100,00 %
02.09.2018 12:14 22,9 C 30,0 C 20,0 C 55 % 1022,9 hPa 0,0 l/m 0 min 0 min 176 W/m 18,0 km/h (3 Bft) 95,74 %
02.09.2018 12:16 22,9 C 30,6 C 20,0 C 55 % 1022,8 hPa 0,0 l/m 0 min 0 min 113 W/m 9,0 km/h (2 Bft) 97,87 %
02.09.2018 12:18 23,0 C 30,6 C 20,0 C 55 % 1022,7 hPa 0,0 l/m 0 min 0 min 129 W/m 11,3 km/h (2 Bft) 97,83 %
02.09.2018 12:20 23,1 C 30,0 C 20,0 C 54 % 1022,7 hPa 0,0 l/m 0 min 0 min 225 W/m 13,5 km/h (3 Bft) 97,87 %
02.09.2018 12:22 23,1 C 30,6 C 20,0 C 54 % 1022,7 hPa 0,0 l/m 2 min 0 min 503 W/m 15,8 km/h (3 Bft) 97,87 %
02.09.2018 12:24 23,2 C 31,1 C 20,0 C 55 % 1022,7 hPa 0,0 l/m 2 min 0 min 619 W/m 11,3 km/h (2 Bft) 97,87 %
02.09.2018 12:26 23,2 C 31,1 C 20,0 C 54 % 1022,7 hPa 0,0 l/m 2 min 0 min 619 W/m 11,3 km/h (2 Bft) 95,74 %
02.09.2018 12:28 23,3 C 31,1 C 20,0 C 55 % 1022,6 hPa 0,0 l/m 0 min 0 min 271 W/m 6,8 km/h (2 Bft) 97,87 %
02.09.2018 12:30 23,3 C 31,1 C 20,0 C 54 % 1022,6 hPa 0,0 l/m 0 min 0 min 98 W/m 13,5 km/h (3 Bft) 97,83 %
02.09.2018 12:32 23,4 C 31,1 C 20,0 C 54 % 1022,6 hPa 0,0 l/m 0 min 0 min 86 W/m 9,0 km/h (2 Bft) 97,56 %
02.09.2018 12:34 23,4 C 30,0 C 20,0 C 53 % 1022,6 hPa 0,0 l/m 0 min 0 min 83 W/m 20,3 km/h (4 Bft) 97,87 %
02.09.2018 12:36 23,4 C 29,4 C 20,6 C 54 % 1022,7 hPa 0,0 l/m 0 min 0 min 87 W/m 13,5 km/h (3 Bft) 98,00 %
02.09.2018 12:38 23,5 C 29,4 C 20,6 C 53 % 1022,6 hPa 0,0 l/m 0 min 0 min 112 W/m 15,8 km/h (3 Bft) 97,87 %
02.09.2018 12:40 23,5 C 30,0 C 20,0 C 53 % 1022,7 hPa 0,0 l/m 0 min 0 min 115 W/m 11,3 km/h (2 Bft) 97,87 %
02.09.2018 12:42 23,5 C 29,4 C 20,0 C 53 % 1022,5 hPa 0,0 l/m 0 min 0 min 84 W/m 15,8 km/h (3 Bft) 97,83 %
02.09.2018 12:44 23,6 C 30,0 C 20,6 C 53 % 1022,6 hPa 0,0 l/m 0 min 0 min 98 W/m 9,0 km/h (2 Bft) 97,87 %
02.09.2018 12:46 23,6 C 30,0 C 20,6 C 53 % 1022,5 hPa 0,0 l/m 0 min 0 min 105 W/m 9,0 km/h (2 Bft) 97,87 %
02.09.2018 12:48 23,6 C 30,6 C 20,6 C 53 % 1022,5 hPa 0,0 l/m 0 min 0 min 342 W/m 9,0 km/h (2 Bft) 97,87 %
02.09.2018 12:50 23,7 C 30,0 C 20,0 C 53 % 1022,5 hPa 0,0 l/m 2 min 0 min 652 W/m 15,8 km/h (3 Bft) 97,87 %
02.09.2018 12:52 23,7 C 30,6 C 20,6 C 55 % 1022,5 hPa 0,0 l/m 2 min 0 min 492 W/m 9,0 km/h (2 Bft) 97,87 %
02.09.2018 12:54 23,7 C 30,6 C 20,6 C 54 % 1022,4 hPa 0,0 l/m 2 min 0 min 537 W/m 6,8 km/h (2 Bft) 95,65 %
02.09.2018 12:56 23,8 C 31,1 C 20,6 C 54 % 1022,4 hPa 0,0 l/m 2 min 0 min 635 W/m 6,8 km/h (2 Bft) 95,74 %
02.09.2018 12:58 23,8 C 30,0 C 20,6 C 53 % 1022,4 hPa 0,0 l/m 2 min 0 min 419 W/m 9,0 km/h (2 Bft) 97,87 %
02.09.2018 13:00 23,9 C 27,8 C 21,1 C 52 % 1022,4 hPa 0,0 l/m 2 min 0 min 431 W/m 11,3 km/h (2 Bft) 97,87 %
02.09.2018 13:02 23,9 C 26,7 C 21,1 C 52 % 1022,4 hPa 0,0 l/m 2 min 0 min 371 W/m 15,8 km/h (3 Bft) 97,96 %
02.09.2018 13:04 23,9 C 25,0 C 20,6 C 52 % 1022,4 hPa 0,0 l/m 0 min 0 min 331 W/m 11,3 km/h (2 Bft) 93,62 %
02.09.2018 13:06 23,9 C 24,4 C 20,6 C 52 % 1022,4 hPa 0,0 l/m 0 min 0 min 336 W/m 6,8 km/h (2 Bft) 95,74 %
02.09.2018 13:08 23,9 C 23,9 C 20,6 C 52 % 1022,3 hPa 0,0 l/m 0 min 0 min 349 W/m 24,8 km/h (4 Bft) 97,96 %
02.09.2018 13:10 23,9 C 23,9 C 21,1 C 52 % 1022,2 hPa 0,0 l/m 0 min 0 min 338 W/m 11,3 km/h (2 Bft) 95,74 %
02.09.2018 13:12 23,9 C 23,9 C 21,1 C 51 % 1022,1 hPa 0,0 l/m 0 min 0 min 278 W/m 15,8 km/h (3 Bft) 95,74 %
02.09.2018 13:14 23,8 C 23,9 C 21,1 C 52 % 1022,2 hPa 0,0 l/m 0 min 0 min 254 W/m 13,5 km/h (3 Bft) 97,87 %
02.09.2018 13:16 23,8 C 23,3 C 20,6 C 51 % 1022,2 hPa 0,0 l/m 0 min 0 min 156 W/m 11,3 km/h (2 Bft) 100,00 %
02.09.2018 13:18 23,8 C 23,3 C 20,6 C 51 % 1022,1 hPa 0,0 l/m 0 min 0 min 151 W/m 11,3 km/h (2 Bft) 97,87 %
02.09.2018 13:20 23,7 C 23,3 C 21,1 C 52 % 1022,0 hPa 0,0 l/m 0 min 0 min 137 W/m 15,8 km/h (3 Bft) 97,87 %
02.09.2018 13:22 23,7 C 23,3 C 21,1 C 52 % 1022,2 hPa 0,0 l/m 0 min 0 min 137 W/m 15,8 km/h (3 Bft) 91,49 %
02.09.2018 13:24 23,6 C 23,3 C 21,1 C 52 % 1022,2 hPa 0,0 l/m 0 min 0 min 173 W/m 18,0 km/h (3 Bft) 95,74 %
02.09.2018 13:26 23,6 C 23,3 C 21,1 C 52 % 1022,1 hPa 0,0 l/m 2 min 0 min 702 W/m 11,3 km/h (2 Bft) 95,74 %
02.09.2018 13:28 23,6 C 23,3 C 21,1 C 52 % 1022,0 hPa 0,0 l/m 2 min 0 min 706 W/m 9,0 km/h (2 Bft) 95,65 %
02.09.2018 13:30 23,5 C 23,3 C 21,1 C 53 % 1022,1 hPa 0,0 l/m 2 min 0 min 706 W/m 9,0 km/h (2 Bft) 95,74 %
02.09.2018 13:32 23,5 C 23,3 C 21,1 C 53 % 1022,0 hPa 0,0 l/m 2 min 0 min 705 W/m 13,5 km/h (3 Bft) 93,75 %
02.09.2018 13:34 23,5 C 23,3 C 21,1 C 53 % 1022,0 hPa 0,0 l/m 2 min 0 min 705 W/m 11,3 km/h (2 Bft) 97,87 %
02.09.2018 13:36 23,4 C 23,3 C 21,1 C 53 % 1021,9 hPa 0,0 l/m 2 min 0 min 704 W/m 9,0 km/h (2 Bft) 95,74 %
02.09.2018 13:38 23,4 C 23,3 C 21,1 C 53 % 1022,0 hPa 0,0 l/m 2 min 0 min 709 W/m 15,8 km/h (3 Bft) 95,65 %
02.09.2018 13:40 23,4 C 23,3 C 21,1 C 52 % 1022,0 hPa 0,0 l/m 2 min 0 min 712 W/m 11,3 km/h (2 Bft) 93,62 %
02.09.2018 13:42 23,4 C 23,3 C 21,1 C 53 % 1022,0 hPa 0,0 l/m 2 min 0 min 703 W/m 11,3 km/h (2 Bft) 95,74 %
02.09.2018 13:44 23,4 C 23,3 C 21,1 C 52 % 1022,0 hPa 0,0 l/m 2 min 0 min 717 W/m 13,5 km/h (3 Bft) 93,62 %
02.09.2018 13:46 23,4 C 23,3 C 21,1 C 52 % 1021,8 hPa 0,0 l/m 2 min 0 min 718 W/m 11,3 km/h (2 Bft) 95,74 %
02.09.2018 13:48 23,4 C 23,3 C 21,1 C 53 % 1021,9 hPa 0,0 l/m 2 min 0 min 719 W/m 9,0 km/h (2 Bft) 95,74 %
02.09.2018 13:50 23,3 C 23,3 C 21,1 C 52 % 1021,8 hPa 0,0 l/m 2 min 0 min 719 W/m 6,8 km/h (2 Bft) 95,74 %
02.09.2018 13:52 23,3 C 23,3 C 21,1 C 52 % 1021,8 hPa 0,0 l/m 2 min 0 min 719 W/m 9,0 km/h (2 Bft) 95,65 %
02.09.2018 13:54 23,3 C 23,3 C 21,1 C 52 % 1021,7 hPa 0,0 l/m 2 min 0 min 719 W/m 9,0 km/h (2 Bft) 95,74 %
02.09.2018 13:56 23,4 C 23,3 C 21,1 C 53 % 1021,7 hPa 0,0 l/m 2 min 0 min 720 W/m 11,3 km/h (2 Bft) 93,62 %
02.09.2018 13:58 23,3 C 23,3 C 21,1 C 52 % 1021,9 hPa 0,0 l/m 2 min 0 min 719 W/m 9,0 km/h (2 Bft) 93,62 %
02.09.2018 14:00 23,3 C 23,3 C 21,1 C 52 % 1021,8 hPa 0,0 l/m 2 min 0 min 718 W/m 11,3 km/h (2 Bft) 95,74 %
02.09.2018 14:02 23,4 C 23,3 C 21,1 C 52 % 1021,8 hPa 0,0 l/m 2 min 0 min 717 W/m 15,8 km/h (3 Bft) 94,29 %
02.09.2018 14:04 23,4 C 23,3 C 21,1 C 53 % 1021,7 hPa 0,0 l/m 2 min 0 min 718 W/m 6,8 km/h (2 Bft) 97,87 %
02.09.2018 14:06 23,4 C 23,3 C 21,1 C 52 % 1021,7 hPa 0,0 l/m 2 min 0 min 719 W/m 9,0 km/h (2 Bft) 98,25 %
02.09.2018 14:08 23,4 C 23,3 C 21,1 C 52 % 1021,6 hPa 0,0 l/m 2 min 0 min 719 W/m 11,3 km/h (2 Bft) 97,87 %
02.09.2018 14:10 23,4 C 23,3 C 21,1 C 52 % 1021,7 hPa 0,0 l/m 2 min 0 min 720 W/m 13,5 km/h (3 Bft) 97,87 %
02.09.2018 14:12 23,4 C 23,3 C 21,1 C 52 % 1021,6 hPa 0,0 l/m 2 min 0 min 717 W/m 13,5 km/h (3 Bft) 95,74 %
02.09.2018 14:14 23,4 C 23,3 C 21,1 C 52 % 1021,6 hPa 0,0 l/m 2 min 0 min 718 W/m 9,0 km/h (2 Bft) 100,00 %
02.09.2018 14:16 23,4 C 23,3 C 21,1 C 52 % 1021,6 hPa 0,0 l/m 2 min 0 min 719 W/m 9,0 km/h (2 Bft) 100,00 %
02.09.2018 14:18 23,4 C 23,3 C 21,1 C 52 % 1021,6 hPa 0,0 l/m 2 min 0 min 716 W/m 18,0 km/h (3 Bft) 100,00 %
02.09.2018 14:20 23,4 C 23,9 C 21,7 C 52 % 1021,5 hPa 0,0 l/m 2 min 0 min 715 W/m 13,5 km/h (3 Bft) 97,87 %
02.09.2018 14:22 23,5 C 23,9 C 21,7 C 52 % 1021,6 hPa 0,0 l/m 2 min 0 min 714 W/m 6,8 km/h (2 Bft) 100,00 %
02.09.2018 14:24 23,5 C 23,3 C 21,7 C 52 % 1021,5 hPa 0,0 l/m 2 min 0 min 712 W/m 13,5 km/h (3 Bft) 100,00 %
02.09.2018 14:26 23,5 C 23,9 C 21,7 C 52 % 1021,5 hPa 0,0 l/m 2 min 0 min 709 W/m 9,0 km/h (2 Bft) 100,00 %
02.09.2018 14:28 23,6 C 23,3 C 21,7 C 52 % 1021,5 hPa 0,0 l/m 2 min 0 min 713 W/m 9,0 km/h (2 Bft) 100,00 %
02.09.2018 14:30 23,6 C 23,3 C 21,7 C 51 % 1021,4 hPa 0,0 l/m 2 min 0 min 710 W/m 27,0 km/h (4 Bft) 100,00 %
02.09.2018 14:32 23,6 C 23,9 C 21,1 C 52 % 1021,5 hPa 0,0 l/m 2 min 0 min 713 W/m 20,3 km/h (4 Bft) 100,00 %
02.09.2018 14:34 23,6 C 23,9 C 21,7 C 51 % 1021,5 hPa 0,0 l/m 2 min 0 min 713 W/m 15,8 km/h (3 Bft) 100,00 %
02.09.2018 14:36 23,6 C 23,9 C 21,7 C 51 % 1021,4 hPa 0,0 l/m 2 min 0 min 710 W/m 13,5 km/h (3 Bft) 97,87 %
02.09.2018 14:38 23,7 C 23,9 C 21,7 C 52 % 1021,4 hPa 0,0 l/m 2 min 0 min 705 W/m 11,3 km/h (2 Bft) 100,00 %
02.09.2018 14:40 23,7 C 23,9 C 21,7 C 52 % 1021,4 hPa 0,0 l/m 2 min 0 min 705 W/m 6,8 km/h (2 Bft) 100,00 %
02.09.2018 14:42 23,7 C 23,9 C 21,7 C 51 % 1021,4 hPa 0,0 l/m 2 min 0 min 704 W/m 15,8 km/h (3 Bft) 100,00 %
02.09.2018 14:44 23,7 C 23,9 C 21,7 C 51 % 1021,3 hPa 0,0 l/m 2 min 0 min 707 W/m 9,0 km/h (2 Bft) 100,00 %
02.09.2018 14:46 23,7 C 23,9 C 21,7 C 52 % 1021,3 hPa 0,0 l/m 2 min 0 min 704 W/m 11,3 km/h (2 Bft) 100,00 %
02.09.2018 14:48 23,8 C 23,9 C 21,7 C 52 % 1021,4 hPa 0,0 l/m 2 min 0 min 704 W/m 9,0 km/h (2 Bft) 100,00 %
02.09.2018 14:50 23,8 C 23,9 C 21,7 C 52 % 1021,2 hPa 0,0 l/m 2 min 0 min 703 W/m 9,0 km/h (2 Bft) 100,00 %
02.09.2018 14:52 23,8 C 23,9 C 21,1 C 52 % 1021,2 hPa 0,0 l/m 2 min 0 min 700 W/m 9,0 km/h (2 Bft) 100,00 %
02.09.2018 14:54 23,8 C 23,9 C 21,7 C 52 % 1021,2 hPa 0,0 l/m 2 min 0 min 700 W/m 9,0 km/h (2 Bft) 100,00 %
02.09.2018 14:56 23,8 C 23,9 C 21,7 C 53 % 1021,2 hPa 0,0 l/m 2 min 0 min 700 W/m 9,0 km/h (2 Bft) 100,00 %
02.09.2018 14:58 23,9 C 23,9 C 21,7 C 53 % 1021,1 hPa 0,0 l/m 2 min 0 min 702 W/m 9,0 km/h (2 Bft) 100,00 %
02.09.2018 15:00 23,9 C 23,9 C 21,7 C 52 % 1021,1 hPa 0,0 l/m 2 min 0 min 699 W/m 6,8 km/h (2 Bft) 100,00 %
02.09.2018 15:02 23,9 C 24,4 C 21,7 C 52 % 1021,0 hPa 0,0 l/m 2 min 0 min 694 W/m 6,8 km/h (2 Bft) 100,00 %
02.09.2018 15:04 23,9 C 24,4 C 21,7 C 52 % 1021,0 hPa 0,0 l/m 2 min 0 min 693 W/m 9,0 km/h (2 Bft) 100,00 %
02.09.2018 15:06 24,0 C 23,9 C 21,7 C 52 % 1021,1 hPa 0,0 l/m 2 min 0 min 691 W/m 13,5 km/h (3 Bft) 100,00 %
02.09.2018 15:08 24,0 C 23,9 C 21,7 C 51 % 1021,0 hPa 0,0 l/m 2 min 0 min 688 W/m 9,0 km/h (2 Bft) 100,00 %
02.09.2018 15:10 24,1 C 23,9 C 21,7 C 51 % 1021,0 hPa 0,0 l/m 2 min 0 min 687 W/m 15,8 km/h (3 Bft) 100,00 %
02.09.2018 15:12 24,1 C 24,4 C 21,7 C 52 % 1021,0 hPa 0,0 l/m 2 min 0 min 685 W/m 11,3 km/h (2 Bft) 100,00 %
02.09.2018 15:14 24,1 C 23,9 C 21,7 C 51 % 1021,0 hPa 0,0 l/m 2 min 0 min 683 W/m 15,8 km/h (3 Bft) 100,00 %
02.09.2018 15:16 24,2 C 23,9 C 21,7 C 50 % 1020,9 hPa 0,0 l/m 2 min 0 min 678 W/m 9,0 km/h (2 Bft) 100,00 %
02.09.2018 15:18 24,2 C 23,9 C 21,7 C 50 % 1020,9 hPa 0,0 l/m 2 min 0 min 675 W/m 9,0 km/h (2 Bft) 100,00 %
02.09.2018 15:20 24,2 C 23,9 C 21,7 C 51 % 1020,8 hPa 0,0 l/m 2 min 0 min 670 W/m 6,8 km/h (2 Bft) 100,00 %
02.09.2018 15:22 24,2 C 23,9 C 22,2 C 50 % 1020,9 hPa 0,0 l/m 2 min 0 min 673 W/m 15,8 km/h (3 Bft) 100,00 %
02.09.2018 15:24 24,2 C 23,9 C 21,7 C 50 % 1020,9 hPa 0,0 l/m 2 min 0 min 670 W/m 11,3 km/h (2 Bft) 97,14 %
02.09.2018 15:26 24,3 C 24,4 C 21,7 C 51 % 1020,9 hPa 0,0 l/m 2 min 0 min 671 W/m 11,3 km/h (2 Bft) 100,00 %
02.09.2018 15:28 24,3 C 24,4 C 21,7 C 50 % 1020,9 hPa 0,0 l/m 2 min 0 min 669 W/m 6,8 km/h (2 Bft) 97,83 %
02.09.2018 15:30 24,3 C 24,4 C 21,7 C 51 % 1020,9 hPa 0,0 l/m 2 min 0 min 664 W/m 6,8 km/h (2 Bft) 97,87 %
02.09.2018 15:32 24,3 C 24,4 C 21,7 C 50 % 1020,9 hPa 0,0 l/m 2 min 0 min 661 W/m 13,5 km/h (3 Bft) 97,87 %
02.09.2018 15:34 24,3 C 24,4 C 21,7 C 51 % 1020,7 hPa 0,0 l/m 2 min 0 min 659 W/m 11,3 km/h (2 Bft) 97,87 %
02.09.2018 15:36 24,4 C 24,4 C 21,7 C 52 % 1020,8 hPa 0,0 l/m 2 min 0 min 656 W/m 9,0 km/h (2 Bft) 98,21 %
02.09.2018 15:38 24,4 C 24,4 C 21,7 C 51 % 1020,8 hPa 0,0 l/m 2 min 0 min 644 W/m 6,8 km/h (2 Bft) 97,83 %
02.09.2018 15:40 24,4 C 24,4 C 21,7 C 50 % 1020,7 hPa 0,0 l/m 2 min 0 min 650 W/m 9,0 km/h (2 Bft) 95,74 %
02.09.2018 15:42 24,4 C 24,4 C 22,2 C 50 % 1020,7 hPa 0,0 l/m 2 min 0 min 646 W/m 9,0 km/h (2 Bft) 97,87 %
02.09.2018 15:44 24,5 C 24,4 C 21,7 C 51 % 1020,8 hPa 0,0 l/m 2 min 0 min 644 W/m 6,8 km/h (2 Bft) 95,74 %
02.09.2018 15:46 24,5 C 24,4 C 21,7 C 50 % 1020,8 hPa 0,0 l/m 2 min 0 min 642 W/m 11,3 km/h (2 Bft) 95,74 %
02.09.2018 15:48 24,6 C 24,4 C 22,2 C 50 % 1020,8 hPa 0,0 l/m 2 min 0 min 639 W/m 18,0 km/h (3 Bft) 97,87 %
02.09.2018 15:50 24,6 C 24,4 C 21,7 C 51 % 1020,7 hPa 0,0 l/m 2 min 0 min 635 W/m 9,0 km/h (2 Bft) 97,83 %
02.09.2018 15:52 24,6 C 24,4 C 21,7 C 50 % 1020,8 hPa 0,0 l/m 2 min 0 min 626 W/m 13,5 km/h (3 Bft) 97,87 %
02.09.2018 15:54 24,7 C 25,0 C 21,7 C 50 % 1020,7 hPa 0,0 l/m 2 min 0 min 624 W/m 9,0 km/h (2 Bft) 97,87 %
02.09.2018 15:56 24,7 C 24,4 C 21,7 C 50 % 1020,7 hPa 0,0 l/m 2 min 0 min 623 W/m 13,5 km/h (3 Bft) 97,87 %
02.09.2018 15:58 24,7 C 25,0 C 21,7 C 49 % 1020,7 hPa 0,0 l/m 2 min 0 min 623 W/m 9,0 km/h (2 Bft) 93,62 %
02.09.2018 16:00 24,8 C 25,0 C 21,7 C 50 % 1020,6 hPa 0,0 l/m 2 min 0 min 624 W/m 9,0 km/h (2 Bft) 95,65 %
02.09.2018 16:02 24,8 C 25,0 C 22,2 C 50 % 1020,7 hPa 0,0 l/m 2 min 0 min 621 W/m 11,3 km/h (2 Bft) 95,92 %
02.09.2018 16:04 24,8 C 25,0 C 22,2 C 49 % 1020,6 hPa 0,0 l/m 2 min 0 min 613 W/m 15,8 km/h (3 Bft) 95,74 %
02.09.2018 16:06 24,8 C 25,0 C 21,7 C 50 % 1020,5 hPa 0,0 l/m 2 min 0 min 616 W/m 9,0 km/h (2 Bft) 95,83 %
02.09.2018 16:08 24,8 C 25,0 C 22,2 C 49 % 1020,5 hPa 0,0 l/m 2 min 0 min 612 W/m 9,0 km/h (2 Bft) 95,74 %
02.09.2018 16:10 24,9 C 25,6 C 21,7 C 50 % 1020,5 hPa 0,0 l/m 2 min 0 min 608 W/m 9,0 km/h (2 Bft) 93,62 %
02.09.2018 16:12 24,9 C 26,1 C 22,2 C 49 % 1020,4 hPa 0,0 l/m 2 min 0 min 606 W/m 9,0 km/h (2 Bft) 95,65 %
02.09.2018 16:14 24,9 C 27,2 C 22,2 C 50 % 1020,4 hPa 0,0 l/m 2 min 0 min 601 W/m 9,0 km/h (2 Bft) 95,74 %
02.09.2018 16:16 25,0 C 27,8 C 21,7 C 50 % 1020,4 hPa 0,0 l/m 2 min 0 min 599 W/m 9,0 km/h (2 Bft) 93,62 %
02.09.2018 16:18 25,0 C 28,3 C 21,7 C 50 % 1020,4 hPa 0,0 l/m 2 min 0 min 598 W/m 6,8 km/h (2 Bft) 93,62 %
02.09.2018 16:20 25,1 C 27,8 C 21,7 C 50 % 1020,4 hPa 0,0 l/m 2 min 0 min 598 W/m 11,3 km/h (2 Bft) 93,62 %
02.09.2018 16:22 25,1 C 27,8 C 21,7 C 50 % 1020,4 hPa 0,0 l/m 2 min 0 min 592 W/m 9,0 km/h (2 Bft) 93,62 %
02.09.2018 16:24 25,1 C 28,3 C 21,7 C 50 % 1020,4 hPa 0,0 l/m 2 min 0 min 582 W/m 4,5 km/h (1 Bft) 97,83 %
02.09.2018 16:26 25,1 C 28,9 C 21,7 C 50 % 1020,3 hPa 0,0 l/m 2 min 0 min 578 W/m 9,0 km/h (2 Bft) 95,74 %
02.09.2018 16:28 25,1 C 29,4 C 21,7 C 50 % 1020,2 hPa 0,0 l/m 2 min 0 min 572 W/m 4,5 km/h (1 Bft) 95,74 %
02.09.2018 16:30 25,1 C 28,9 C 21,7 C 49 % 1020,1 hPa 0,0 l/m 2 min 0 min 572 W/m 11,3 km/h (2 Bft) 93,62 %
02.09.2018 16:32 25,2 C 28,9 C 22,2 C 50 % 1020,2 hPa 0,0 l/m 2 min 0 min 568 W/m 11,3 km/h (2 Bft) 97,22 %
02.09.2018 16:34 25,2 C 28,9 C 22,2 C 49 % 1020,2 hPa 0,0 l/m 2 min 0 min 564 W/m 9,0 km/h (2 Bft) 95,74 %
02.09.2018 16:36 25,2 C 28,9 C 22,2 C 49 % 1020,3 hPa 0,0 l/m 2 min 0 min 566 W/m 13,5 km/h (3 Bft) 92,86 %
02.09.2018 16:38 25,3 C 28,9 C 22,2 C 49 % 1020,2 hPa 0,0 l/m 2 min 0 min 565 W/m 6,8 km/h (2 Bft) 97,87 %
02.09.2018 16:40 25,3 C 28,3 C 21,7 C 48 % 1020,1 hPa 0,0 l/m 2 min 0 min 562 W/m 6,8 km/h (2 Bft) 97,87 %
02.09.2018 16:42 25,3 C 28,3 C 22,2 C 49 % 1020,1 hPa 0,0 l/m 2 min 0 min 554 W/m 11,3 km/h (2 Bft) 97,87 %
02.09.2018 16:44 25,3 C 27,8 C 22,2 C 48 % 1020,1 hPa 0,0 l/m 2 min 0 min 546 W/m 13,5 km/h (3 Bft) 93,62 %
02.09.2018 16:46 25,4 C 27,2 C 22,2 C 48 % 1020,0 hPa 0,0 l/m 2 min 0 min 541 W/m 11,3 km/h (2 Bft) 97,96 %
02.09.2018 16:48 25,4 C 26,7 C 22,2 C 48 % 1019,9 hPa 0,0 l/m 2 min 0 min 543 W/m 18,0 km/h (3 Bft) 97,83 %
02.09.2018 16:50 25,4 C 26,7 C 22,2 C 48 % 1020,0 hPa 0,0 l/m 2 min 0 min 527 W/m 11,3 km/h (2 Bft) 97,87 %
02.09.2018 16:52 25,4 C 26,1 C 22,2 C 49 % 1020,0 hPa 0,0 l/m 2 min 0 min 523 W/m 9,0 km/h (2 Bft) 95,74 %
02.09.2018 16:54 25,4 C 26,1 C 22,2 C 48 % 1020,0 hPa 0,0 l/m 2 min 0 min 524 W/m 11,3 km/h (2 Bft) 97,87 %
02.09.2018 16:56 25,4 C 26,1 C 22,2 C 49 % 1020,0 hPa 0,0 l/m 2 min 0 min 521 W/m 9,0 km/h (2 Bft) 97,87 %
02.09.2018 16:58 25,4 C 26,1 C 21,7 C 49 % 1020,0 hPa 0,0 l/m 2 min 0 min 542 W/m 11,3 km/h (2 Bft) 97,83 %
02.09.2018 17:00 25,4 C 26,1 C 21,7 C 49 % 1020,0 hPa 0,0 l/m 2 min 0 min 547 W/m 9,0 km/h (2 Bft) 95,74 %
02.09.2018 17:02 25,4 C 27,2 C 22,2 C 49 % 1020,0 hPa 0,0 l/m 2 min 0 min 562 W/m 11,3 km/h (2 Bft) 100,00 %
02.09.2018 17:04 25,4 C 27,2 C 22,2 C 48 % 1020,0 hPa 0,0 l/m 2 min 0 min 569 W/m 13,5 km/h (3 Bft) 97,87 %
02.09.2018 17:06 25,4 C 27,8 C 22,2 C 49 % 1020,0 hPa 0,0 l/m 2 min 0 min 566 W/m 9,0 km/h (2 Bft) 97,87 %
02.09.2018 17:08 25,4 C 27,8 C 22,2 C 48 % 1020,0 hPa 0,0 l/m 2 min 0 min 559 W/m 13,5 km/h (3 Bft) 95,74 %
02.09.2018 17:10 25,5 C 27,8 C 22,2 C 49 % 1019,8 hPa 0,0 l/m 2 min 0 min 564 W/m 9,0 km/h (2 Bft) 97,87 %
02.09.2018 17:12 25,5 C 27,2 C 22,2 C 48 % 1019,8 hPa 0,0 l/m 2 min 0 min 556 W/m 11,3 km/h (2 Bft) 97,87 %
02.09.2018 17:14 25,5 C 27,2 C 22,2 C 49 % 1019,8 hPa 0,0 l/m 2 min 0 min 544 W/m 9,0 km/h (2 Bft) 97,83 %
02.09.2018 17:16 25,6 C 27,2 C 22,8 C 48 % 1019,9 hPa 0,0 l/m 2 min 0 min 547 W/m 11,3 km/h (2 Bft) 97,87 %
02.09.2018 17:18 25,6 C 27,2 C 22,8 C 49 % 1019,7 hPa 0,0 l/m 2 min 0 min 532 W/m 6,8 km/h (2 Bft) 97,87 %
02.09.2018 17:20 25,6 C 27,2 C 22,2 C 48 % 1019,7 hPa 0,0 l/m 2 min 0 min 525 W/m 9,0 km/h (2 Bft) 98,31 %
02.09.2018 17:22 25,6 C 27,2 C 22,2 C 48 % 1019,8 hPa 0,0 l/m 2 min 0 min 520 W/m 9,0 km/h (2 Bft) 97,14 %
02.09.2018 17:24 25,6 C 27,2 C 22,2 C 48 % 1019,8 hPa 0,0 l/m 2 min 0 min 506 W/m 9,0 km/h (2 Bft) 97,83 %
02.09.2018 17:26 25,6 C 26,1 C 22,2 C 48 % 1019,8 hPa 0,0 l/m 2 min 0 min 431 W/m 9,0 km/h (2 Bft) 97,87 %
02.09.2018 17:28 25,6 C 25,0 C 21,7 C 48 % 1019,8 hPa 0,0 l/m 0 min 0 min 131 W/m 6,8 km/h (2 Bft) 97,87 %
02.09.2018 17:30 25,6 C 24,4 C 21,7 C 48 % 1019,8 hPa 0,0 l/m 0 min 0 min 129 W/m 9,0 km/h (2 Bft) 97,87 %
02.09.2018 17:32 25,6 C 25,0 C 21,7 C 48 % 1019,7 hPa 0,0 l/m 2 min 0 min 208 W/m 6,8 km/h (2 Bft) 97,87 %
02.09.2018 17:34 25,5 C 25,6 C 21,7 C 49 % 1019,7 hPa 0,0 l/m 2 min 0 min 481 W/m 9,0 km/h (2 Bft) 100,00 %
02.09.2018 17:36 25,5 C 25,6 C 21,7 C 48 % 1019,7 hPa 0,0 l/m 2 min 0 min 468 W/m 13,5 km/h (3 Bft) 100,00 %
02.09.2018 17:38 25,4 C 25,0 C 21,7 C 49 % 1019,7 hPa 0,0 l/m 2 min 0 min 364 W/m 6,8 km/h (2 Bft) 100,00 %
02.09.2018 17:40 25,4 C 25,0 C 21,7 C 49 % 1019,7 hPa 0,0 l/m 0 min 0 min 101 W/m 6,8 km/h (2 Bft) 97,87 %
02.09.2018 17:42 25,3 C 25,0 C 21,7 C 49 % 1019,6 hPa 0,0 l/m 2 min 0 min 403 W/m 9,0 km/h (2 Bft) 97,87 %
02.09.2018 17:44 25,3 C 25,6 C 21,7 C 49 % 1019,6 hPa 0,0 l/m 2 min 0 min 408 W/m 9,0 km/h (2 Bft) 100,00 %
02.09.2018 17:46 25,3 C 25,6 C 21,7 C 49 % 1019,6 hPa 0,0 l/m 2 min 0 min 396 W/m 6,8 km/h (2 Bft) 100,00 %
02.09.2018 17:48 25,3 C 25,6 C 21,7 C 49 % 1019,6 hPa 0,0 l/m 2 min 0 min 390 W/m 11,3 km/h (2 Bft) 100,00 %
02.09.2018 17:50 25,3 C 25,6 C 21,7 C 49 % 1019,7 hPa 0,0 l/m 2 min 0 min 389 W/m 6,8 km/h (2 Bft) 100,00 %
02.09.2018 17:52 25,3 C 25,6 C 21,7 C 48 % 1019,6 hPa 0,0 l/m 2 min 0 min 388 W/m 6,8 km/h (2 Bft) 97,87 %
02.09.2018 17:54 25,2 C 26,1 C 21,7 C 49 % 1019,6 hPa 0,0 l/m 2 min 0 min 384 W/m 6,8 km/h (2 Bft) 100,00 %
02.09.2018 17:56 25,3 C 25,6 C 21,7 C 49 % 1019,6 hPa 0,0 l/m 2 min 0 min 374 W/m 9,0 km/h (2 Bft) 100,00 %
02.09.2018 17:58 25,3 C 25,6 C 21,7 C 49 % 1019,6 hPa 0,0 l/m 2 min 0 min 363 W/m 6,8 km/h (2 Bft) 100,00 %
02.09.2018 18:00 25,3 C 25,6 C 21,7 C 48 % 1019,6 hPa 0,0 l/m 2 min 0 min 354 W/m 11,3 km/h (2 Bft) 100,00 %
02.09.2018 18:02 25,3 C 25,0 C 21,7 C 48 % 1019,6 hPa 0,0 l/m 2 min 0 min 349 W/m 11,3 km/h (2 Bft) 100,00 %
02.09.2018 18:04 25,3 C 25,0 C 21,7 C 49 % 1019,6 hPa 0,0 l/m 2 min 0 min 348 W/m 6,8 km/h (2 Bft) 100,00 %
02.09.2018 18:07 25,2 C 25,0 C 21,7 C 49 % 1019,6 hPa 0,0 l/m 3 min 0 min 336 W/m 6,8 km/h (2 Bft) 100,00 %
02.09.2018 18:08 25,2 C 25,0 C 21,7 C 49 % 1019,6 hPa 0,0 l/m 1 min 0 min 325 W/m 6,8 km/h (2 Bft) 100,00 %
02.09.2018 18:10 25,2 C 25,0 C 21,7 C 48 % 1019,5 hPa 0,0 l/m 2 min 0 min 321 W/m 13,5 km/h (3 Bft) 100,00 %
02.09.2018 18:12 25,2 C 25,0 C 21,7 C 49 % 1019,6 hPa 0,0 l/m 2 min 0 min 314 W/m 6,8 km/h (2 Bft) 100,00 %
02.09.2018 18:14 25,1 C 24,4 C 21,7 C 49 % 1019,6 hPa 0,0 l/m 2 min 0 min 314 W/m 9,0 km/h (2 Bft) 97,87 %
02.09.2018 18:16 25,1 C 24,4 C 21,7 C 48 % 1019,6 hPa 0,0 l/m 2 min 0 min 312 W/m 13,5 km/h (3 Bft) 100,00 %
02.09.2018 18:18 25,1 C 24,4 C 21,7 C 48 % 1019,6 hPa 0,0 l/m 2 min 0 min 304 W/m 9,0 km/h (2 Bft) 100,00 %
02.09.2018 18:20 25,1 C 24,4 C 21,7 C 48 % 1019,5 hPa 0,0 l/m 2 min 0 min 298 W/m 9,0 km/h (2 Bft) 100,00 %
02.09.2018 18:22 25,1 C 24,4 C 21,7 C 48 % 1019,5 hPa 0,0 l/m 2 min 0 min 292 W/m 6,8 km/h (2 Bft) 100,00 %
02.09.2018 18:24 25,1 C 24,4 C 21,7 C 49 % 1019,5 hPa 0,0 l/m 2 min 0 min 287 W/m 11,3 km/h (2 Bft) 97,87 %
02.09.2018 18:26 25,1 C 23,9 C 21,7 C 48 % 1019,5 hPa 0,0 l/m 2 min 0 min 287 W/m 13,5 km/h (3 Bft) 100,00 %
02.09.2018 18:28 25,0 C 23,9 C 21,7 C 48 % 1019,5 hPa 0,0 l/m 2 min 0 min 283 W/m 11,3 km/h (2 Bft) 97,87 %
02.09.2018 18:30 24,9 C 23,9 C 21,7 C 48 % 1019,5 hPa 0,0 l/m 2 min 0 min 277 W/m 13,5 km/h (3 Bft) 100,00 %
02.09.2018 18:32 24,9 C 23,9 C 21,7 C 49 % 1019,4 hPa 0,0 l/m 2 min 0 min 268 W/m 9,0 km/h (2 Bft) 97,83 %
02.09.2018 18:34 24,9 C 23,9 C 22,2 C 49 % 1019,5 hPa 0,0 l/m 2 min 0 min 259 W/m 6,8 km/h (2 Bft) 95,74 %
02.09.2018 18:36 24,8 C 23,9 C 21,7 C 50 % 1019,5 hPa 0,0 l/m 2 min 0 min 251 W/m 9,0 km/h (2 Bft) 97,87 %
02.09.2018 18:38 24,8 C 23,9 C 21,7 C 49 % 1019,4 hPa 0,0 l/m 2 min 0 min 245 W/m 9,0 km/h (2 Bft) 95,74 %
02.09.2018 18:40 24,8 C 23,9 C 21,7 C 49 % 1019,4 hPa 0,0 l/m 2 min 0 min 236 W/m 6,8 km/h (2 Bft) 97,87 %
02.09.2018 18:42 24,8 C 23,9 C 21,7 C 49 % 1019,4 hPa 0,0 l/m 2 min 0 min 212 W/m 4,5 km/h (1 Bft) 97,87 %
02.09.2018 18:44 24,7 C 23,9 C 21,7 C 49 % 1019,4 hPa 0,0 l/m 0 min 0 min 89 W/m 11,3 km/h (2 Bft) 95,65 %
02.09.2018 18:46 24,7 C 23,9 C 21,7 C 49 % 1019,4 hPa 0,0 l/m 0 min 0 min 53 W/m 9,0 km/h (2 Bft) 95,74 %
02.09.2018 18:48 24,6 C 23,3 C 21,7 C 49 % 1019,4 hPa 0,0 l/m 0 min 0 min 53 W/m 9,0 km/h (2 Bft) 95,74 %
02.09.2018 18:50 24,6 C 23,3 C 21,7 C 50 % 1019,4 hPa 0,0 l/m 0 min 0 min 52 W/m 6,8 km/h (2 Bft) 93,62 %
02.09.2018 18:52 24,6 C 23,3 C 21,7 C 49 % 1019,5 hPa 0,0 l/m 0 min 0 min 54 W/m 9,0 km/h (2 Bft) 95,74 %
02.09.2018 18:54 24,5 C 23,3 C 21,7 C 50 % 1019,4 hPa 0,0 l/m 0 min 0 min 54 W/m 9,0 km/h (2 Bft) 95,74 %
02.09.2018 18:56 24,4 C 23,3 C 21,7 C 50 % 1019,4 hPa 0,0 l/m 0 min 0 min 54 W/m 6,8 km/h (2 Bft) 95,65 %
02.09.2018 18:58 24,4 C 23,3 C 21,7 C 50 % 1019,3 hPa 0,0 l/m 0 min 0 min 53 W/m 6,8 km/h (2 Bft) 95,74 %
02.09.2018 19:00 24,4 C 23,3 C 21,1 C 50 % 1019,3 hPa 0,0 l/m 0 min 0 min 53 W/m 9,0 km/h (2 Bft) 95,74 %
02.09.2018 19:02 24,3 C 23,3 C 21,1 C 50 % 1019,3 hPa 0,0 l/m 0 min 0 min 50 W/m 6,8 km/h (2 Bft) 94,29 %
02.09.2018 19:04 24,2 C 23,3 C 21,1 C 51 % 1019,3 hPa 0,0 l/m 0 min 0 min 49 W/m 9,0 km/h (2 Bft) 95,74 %
02.09.2018 19:06 24,2 C 23,3 C 21,1 C 50 % 1019,3 hPa 0,0 l/m 0 min 0 min 49 W/m 9,0 km/h (2 Bft) 95,74 %
02.09.2018 19:08 24,1 C 23,3 C 21,1 C 50 % 1019,4 hPa 0,0 l/m 0 min 0 min 47 W/m 6,8 km/h (2 Bft) 95,74 %
02.09.2018 19:10 24,1 C 23,3 C 21,1 C 50 % 1019,4 hPa 0,0 l/m 0 min 0 min 47 W/m 4,5 km/h (1 Bft) 95,65 %
02.09.2018 19:12 24,0 C 23,3 C 21,1 C 51 % 1019,3 hPa 0,0 l/m 0 min 0 min 46 W/m 6,8 km/h (2 Bft) 95,74 %
02.09.2018 19:14 23,9 C 22,8 C 21,1 C 51 % 1019,3 hPa 0,0 l/m 0 min 0 min 46 W/m 4,5 km/h (1 Bft) 97,87 %
02.09.2018 19:16 23,9 C 22,8 C 21,1 C 50 % 1019,3 hPa 0,0 l/m 0 min 0 min 45 W/m 9,0 km/h (2 Bft) 95,74 %
02.09.2018 19:18 23,8 C 22,8 C 20,6 C 51 % 1019,3 hPa 0,0 l/m 0 min 0 min 41 W/m 9,0 km/h (2 Bft) 97,87 %
02.09.2018 19:20 23,7 C 22,2 C 20,6 C 51 % 1019,3 hPa 0,0 l/m 0 min 0 min 40 W/m 9,0 km/h (2 Bft) 95,74 %
02.09.2018 19:22 23,7 C 22,2 C 20,6 C 51 % 1019,3 hPa 0,0 l/m 0 min 0 min 40 W/m 9,0 km/h (2 Bft) 95,65 %
02.09.2018 19:24 23,6 C 22,2 C 20,6 C 51 % 1019,4 hPa 0,0 l/m 0 min 0 min 40 W/m 6,8 km/h (2 Bft) 97,87 %
02.09.2018 19:26 23,5 C 21,7 C 20,6 C 52 % 1019,3 hPa 0,0 l/m 0 min 0 min 40 W/m 9,0 km/h (2 Bft) 95,74 %
02.09.2018 19:28 23,4 C 21,7 C 20,6 C 52 % 1019,2 hPa 0,0 l/m 0 min 0 min 43 W/m 11,3 km/h (2 Bft) 97,87 %
02.09.2018 19:30 23,4 C 21,7 C 20,6 C 52 % 1019,1 hPa 0,0 l/m 0 min 0 min 47 W/m 11,3 km/h (2 Bft) 97,87 %
02.09.2018 19:32 23,3 C 21,7 C 20,6 C 52 % 1019,2 hPa 0,0 l/m 0 min 0 min 47 W/m 4,5 km/h (1 Bft) 95,74 %
02.09.2018 19:34 23,2 C 21,7 C 20,6 C 52 % 1019,1 hPa 0,0 l/m 0 min 0 min 47 W/m 6,8 km/h (2 Bft) 100,00 %
02.09.2018 19:36 23,2 C 21,7 C 20,6 C 52 % 1019,0 hPa 0,0 l/m 2 min 0 min 49 W/m 6,8 km/h (2 Bft) 100,00 %
02.09.2018 19:38 23,1 C 21,7 C 20,6 C 53 % 1019,0 hPa 0,0 l/m 2 min 0 min 49 W/m 6,8 km/h (2 Bft) 97,87 %
02.09.2018 19:40 23,1 C 21,7 C 20,6 C 53 % 1019,0 hPa 0,0 l/m 2 min 0 min 51 W/m 4,5 km/h (1 Bft) 97,87 %
02.09.2018 19:42 23,0 C 21,7 C 20,6 C 53 % 1019,0 hPa 0,0 l/m 2 min 0 min 50 W/m 6,8 km/h (2 Bft) 97,87 %
02.09.2018 19:44 22,9 C 21,7 C 20,6 C 54 % 1018,9 hPa 0,0 l/m 2 min 0 min 47 W/m 9,0 km/h (2 Bft) 100,00 %
02.09.2018 19:46 22,9 C 21,7 C 20,6 C 53 % 1019,0 hPa 0,0 l/m 2 min 0 min 44 W/m 9,0 km/h (2 Bft) 95,74 %
02.09.2018 19:48 22,8 C 21,7 C 20,6 C 53 % 1019,0 hPa 0,0 l/m 2 min 0 min 38 W/m 6,8 km/h (2 Bft) 97,87 %
02.09.2018 19:50 22,8 C 21,7 C 20,6 C 54 % 1019,0 hPa 0,0 l/m 2 min 0 min 34 W/m 9,0 km/h (2 Bft) 95,74 %
02.09.2018 19:52 22,7 C 21,7 C 20,6 C 53 % 1019,0 hPa 0,0 l/m 2 min 0 min 28 W/m 9,0 km/h (2 Bft) 100,00 %
02.09.2018 19:54 22,7 C 21,7 C 20,6 C 54 % 1019,0 hPa 0,0 l/m 2 min 0 min 25 W/m 11,3 km/h (2 Bft) 97,83 %
02.09.2018 19:56 22,7 C 21,7 C 20,6 C 54 % 1019,2 hPa 0,0 l/m 2 min 0 min 24 W/m 6,8 km/h (2 Bft) 97,87 %
02.09.2018 19:58 22,6 C 21,7 C 20,6 C 53 % 1019,0 hPa 0,0 l/m 2 min 0 min 20 W/m 9,0 km/h (2 Bft) 95,74 %
02.09.2018 20:00 22,6 C 21,7 C 20,6 C 53 % 1019,0 hPa 0,0 l/m 0 min 0 min 17 W/m 9,0 km/h (2 Bft) 97,87 %
02.09.2018 20:02 22,6 C 21,7 C 20,6 C 53 % 1019,0 hPa 0,0 l/m 0 min 0 min 15 W/m 9,0 km/h (2 Bft) 97,96 %
02.09.2018 20:04 22,5 C 21,7 C 20,6 C 54 % 1019,0 hPa 0,0 l/m 0 min 0 min 14 W/m 4,5 km/h (1 Bft) 97,87 %
02.09.2018 20:06 22,5 C 21,1 C 20,6 C 54 % 1019,0 hPa 0,0 l/m 0 min 0 min 12 W/m 6,8 km/h (2 Bft) 97,22 %
02.09.2018 20:08 22,4 C 21,1 C 20,6 C 54 % 1019,0 hPa 0,0 l/m 0 min 0 min 11 W/m 6,8 km/h (2 Bft) 97,83 %
02.09.2018 20:10 22,4 C 21,1 C 20,6 C 54 % 1019,1 hPa 0,0 l/m 0 min 0 min 10 W/m 6,8 km/h (2 Bft) 97,87 %
02.09.2018 20:12 22,4 C 21,1 C 20,6 C 54 % 1019,0 hPa 0,0 l/m 0 min 0 min 9 W/m 11,3 km/h (2 Bft) 95,74 %
02.09.2018 20:14 22,4 C 21,1 C 20,6 C 54 % 1019,1 hPa 0,0 l/m 0 min 0 min 8 W/m 13,5 km/h (3 Bft) 97,87 %
02.09.2018 20:16 22,4 C 21,1 C 20,6 C 54 % 1019,0 hPa 0,0 l/m 0 min 0 min 7 W/m 9,0 km/h (2 Bft) 95,83 %
02.09.2018 20:18 22,3 C 21,1 C 20,6 C 54 % 1019,1 hPa 0,0 l/m 0 min 0 min 6 W/m 9,0 km/h (2 Bft) 97,87 %
02.09.2018 20:20 22,3 C 21,1 C 20,6 C 54 % 1019,1 hPa 0,0 l/m 0 min 0 min 4 W/m 6,8 km/h (2 Bft) 96,55 %
02.09.2018 20:22 22,3 C 21,1 C 20,6 C 54 % 1019,1 hPa 0,0 l/m 0 min 0 min 0 W/m 6,8 km/h (2 Bft) 97,87 %
02.09.2018 20:24 22,3 C 21,1 C 20,6 C 54 % 1019,1 hPa 0,0 l/m 0 min 0 min 0 W/m 4,5 km/h (1 Bft) 97,14 %
02.09.2018 20:26 22,3 C 21,1 C 20,6 C 55 % 1019,1 hPa 0,0 l/m 0 min 0 min 0 W/m 4,5 km/h (1 Bft) 97,87 %
02.09.2018 20:28 22,2 C 21,1 C 20,0 C 55 % 1019,1 hPa 0,0 l/m 0 min 0 min 0 W/m 6,8 km/h (2 Bft) 97,87 %
02.09.2018 20:30 22,2 C 21,1 C 20,0 C 55 % 1019,1 hPa 0,0 l/m 0 min 0 min 0 W/m 6,8 km/h (2 Bft) 97,87 %
02.09.2018 20:32 22,2 C 21,1 C 20,0 C 56 % 1019,2 hPa 0,0 l/m 0 min 0 min 0 W/m 4,5 km/h (1 Bft) 97,83 %
02.09.2018 20:34 22,2 C 21,1 C 20,0 C 55 % 1019,1 hPa 0,0 l/m 0 min 0 min 0 W/m 9,0 km/h (2 Bft) 97,87 %
02.09.2018 20:36 22,1 C 21,1 C 20,0 C 55 % 1019,1 hPa 0,0 l/m 0 min 0 min 0 W/m 9,0 km/h (2 Bft) 97,87 %
02.09.2018 20:38 22,1 C 20,6 C 20,0 C 55 % 1019,3 hPa 0,0 l/m 0 min 0 min 0 W/m 9,0 km/h (2 Bft) 97,87 %
02.09.2018 20:40 22,1 C 20,6 C 20,0 C 55 % 1019,3 hPa 0,0 l/m 0 min 0 min 0 W/m 9,0 km/h (2 Bft) 97,87 %
02.09.2018 20:42 22,0 C 20,6 C 20,0 C 54 % 1019,3 hPa 0,0 l/m 0 min 0 min 0 W/m 6,8 km/h (2 Bft) 97,87 %
02.09.2018 20:44 22,0 C 20,6 C 20,0 C 54 % 1019,2 hPa 0,0 l/m 0 min 0 min 0 W/m 6,8 km/h (2 Bft) 97,83 %
02.09.2018 20:46 21,9 C 20,6 C 20,0 C 54 % 1019,3 hPa 0,0 l/m 0 min 0 min 0 W/m 11,3 km/h (2 Bft) 100,00 %
02.09.2018 20:48 21,9 C 20,6 C 20,0 C 54 % 1019,3 hPa 0,0 l/m 0 min 0 min 0 W/m 9,0 km/h (2 Bft) 100,00 %
02.09.2018 20:50 21,9 C 20,6 C 20,0 C 54 % 1019,3 hPa 0,0 l/m 0 min 0 min 0 W/m 9,0 km/h (2 Bft) 100,00 %
02.09.2018 20:52 21,8 C 20,6 C 20,0 C 54 % 1019,3 hPa 0,0 l/m 0 min 0 min 0 W/m 9,0 km/h (2 Bft) 100,00 %
02.09.2018 20:54 21,8 C 20,6 C 20,0 C 54 % 1019,3 hPa 0,0 l/m 0 min 0 min 0 W/m 9,0 km/h (2 Bft) 100,00 %
02.09.2018 20:56 21,8 C 20,6 C 20,0 C 54 % 1019,3 hPa 0,0 l/m 0 min 0 min 0 W/m 13,5 km/h (3 Bft) 100,00 %
02.09.2018 20:58 21,7 C 20,6 C 19,4 C 54 % 1019,3 hPa 0,0 l/m 0 min 0 min 0 W/m 6,8 km/h (2 Bft) 100,00 %
02.09.2018 21:00 21,7 C 20,6 C 19,4 C 54 % 1019,3 hPa 0,0 l/m 0 min 0 min 0 W/m 4,5 km/h (1 Bft) 100,00 %
02.09.2018 21:02 21,7 C 20,6 C 19,4 C 54 % 1019,3 hPa 0,0 l/m 0 min 0 min 0 W/m 6,8 km/h (2 Bft) 100,00 %
02.09.2018 21:04 21,7 C 20,6 C 19,4 C 54 % 1019,3 hPa 0,0 l/m 0 min 0 min 0 W/m 6,8 km/h (2 Bft) 100,00 %
02.09.2018 21:06 21,6 C 20,6 C 19,4 C 54 % 1019,3 hPa 0,0 l/m 0 min 0 min 0 W/m 9,0 km/h (2 Bft) 97,83 %
02.09.2018 21:08 21,6 C 20,6 C 19,4 C 55 % 1019,3 hPa 0,0 l/m 0 min 0 min 0 W/m 6,8 km/h (2 Bft) 97,87 %
02.09.2018 21:10 21,6 C 20,6 C 19,4 C 55 % 1019,3 hPa 0,0 l/m 0 min 0 min 0 W/m 6,8 km/h (2 Bft) 97,87 %
02.09.2018 21:12 21,5 C 20,0 C 19,4 C 55 % 1019,2 hPa 0,0 l/m 0 min 0 min 0 W/m 11,3 km/h (2 Bft) 95,74 %
02.09.2018 21:14 21,5 C 20,0 C 19,4 C 55 % 1019,3 hPa 0,0 l/m 0 min 0 min 0 W/m 6,8 km/h (2 Bft) 97,87 %
02.09.2018 21:16 21,4 C 20,0 C 19,4 C 55 % 1019,2 hPa 0,0 l/m 0 min 0 min 0 W/m 6,8 km/h (2 Bft) 97,56 %
02.09.2018 21:18 21,4 C 20,0 C 19,4 C 55 % 1019,3 hPa 0,0 l/m 0 min 0 min 0 W/m 6,8 km/h (2 Bft) 97,87 %
02.09.2018 21:20 21,4 C 20,0 C 19,4 C 56 % 1019,2 hPa 0,0 l/m 0 min 0 min 0 W/m 6,8 km/h (2 Bft) 98,08 %
02.09.2018 21:22 21,3 C 20,0 C 19,4 C 55 % 1019,3 hPa 0,0 l/m 0 min 0 min 0 W/m 9,0 km/h (2 Bft) 97,92 %
02.09.2018 21:24 21,3 C 20,0 C 19,4 C 56 % 1019,5 hPa 0,0 l/m 0 min 0 min 0 W/m 9,0 km/h (2 Bft) 97,87 %
02.09.2018 21:26 21,3 C 20,0 C 19,4 C 56 % 1019,3 hPa 0,0 l/m 0 min 0 min 0 W/m 4,5 km/h (1 Bft) 97,87 %
02.09.2018 21:28 21,3 C 20,0 C 19,4 C 56 % 1019,3 hPa 0,0 l/m 0 min 0 min 0 W/m 11,3 km/h (2 Bft) 93,48 %
02.09.2018 21:30 21,2 C 20,0 C 19,4 C 56 % 1019,5 hPa 0,0 l/m 0 min 0 min 0 W/m 6,8 km/h (2 Bft) 97,87 %
02.09.2018 21:32 21,2 C 20,0 C 19,4 C 56 % 1019,4 hPa 0,0 l/m 0 min 0 min 0 W/m 9,0 km/h (2 Bft) 97,87 %
02.09.2018 21:34 21,2 C 20,0 C 19,4 C 56 % 1019,4 hPa 0,0 l/m 0 min 0 min 0 W/m 6,8 km/h (2 Bft) 97,87 %
02.09.2018 21:36 21,2 C 20,0 C 19,4 C 56 % 1019,4 hPa 0,0 l/m 0 min 0 min 0 W/m 4,5 km/h (1 Bft) 97,92 %
02.09.2018 21:38 21,1 C 20,0 C 18,9 C 56 % 1019,4 hPa 0,0 l/m 0 min 0 min 0 W/m 4,5 km/h (1 Bft) 97,87 %
02.09.2018 21:40 21,1 C 20,0 C 18,9 C 56 % 1019,4 hPa 0,0 l/m 0 min 0 min 0 W/m 9,0 km/h (2 Bft) 97,87 %
02.09.2018 21:42 21,1 C 20,0 C 18,9 C 57 % 1019,5 hPa 0,0 l/m 0 min 0 min 0 W/m 9,0 km/h (2 Bft) 97,83 %
02.09.2018 21:44 21,1 C 20,0 C 18,9 C 56 % 1019,4 hPa 0,0 l/m 0 min 0 min 0 W/m 9,0 km/h (2 Bft) 95,74 %
02.09.2018 21:46 21,0 C 20,0 C 19,4 C 56 % 1019,4 hPa 0,0 l/m 0 min 0 min 0 W/m 9,0 km/h (2 Bft) 95,74 %
02.09.2018 21:48 21,0 C 20,0 C 18,9 C 56 % 1019,4 hPa 0,0 l/m 0 min 0 min 0 W/m 6,8 km/h (2 Bft) 97,87 %
02.09.2018 21:50 21,0 C 20,0 C 18,9 C 56 % 1019,4 hPa 0,0 l/m 0 min 0 min 0 W/m 9,0 km/h (2 Bft) 100,00 %
02.09.2018 21:52 20,9 C 20,0 C 18,9 C 56 % 1019,4 hPa 0,0 l/m 0 min 0 min 0 W/m 9,0 km/h (2 Bft) 100,00 %
02.09.2018 21:54 20,9 C 20,0 C 18,9 C 56 % 1019,4 hPa 0,0 l/m 0 min 0 min 0 W/m 9,0 km/h (2 Bft) 100,00 %
02.09.2018 21:56 20,9 C 20,0 C 18,9 C 56 % 1019,4 hPa 0,0 l/m 0 min 0 min 0 W/m 9,0 km/h (2 Bft) 97,87 %
02.09.2018 21:58 20,8 C 20,0 C 18,9 C 56 % 1019,4 hPa 0,0 l/m 0 min 0 min 0 W/m 11,3 km/h (2 Bft) 95,74 %
02.09.2018 22:00 20,8 C 20,0 C 18,9 C 56 % 1019,4 hPa 0,0 l/m 0 min 0 min 0 W/m 6,8 km/h (2 Bft) 95,74 %
02.09.2018 22:02 20,8 C 20,0 C 18,9 C 56 % 1019,4 hPa 0,0 l/m 0 min 0 min 0 W/m 6,8 km/h (2 Bft) 97,96 %
02.09.2018 22:04 20,8 C 19,4 C 18,9 C 57 % 1019,3 hPa 0,0 l/m 0 min 0 min 0 W/m 9,0 km/h (2 Bft) 97,83 %
02.09.2018 22:06 20,8 C 19,4 C 18,9 C 57 % 1019,3 hPa 0,0 l/m 0 min 0 min 0 W/m 11,3 km/h (2 Bft) 95,83 %
02.09.2018 22:08 20,7 C 19,4 C 18,9 C 57 % 1019,3 hPa 0,0 l/m 0 min 0 min 0 W/m 9,0 km/h (2 Bft) 97,87 %
02.09.2018 22:10 20,7 C 19,4 C 18,9 C 57 % 1019,3 hPa 0,0 l/m 0 min 0 min 0 W/m 11,3 km/h (2 Bft) 95,74 %
02.09.2018 22:12 20,7 C 19,4 C 18,9 C 57 % 1019,3 hPa 0,0 l/m 0 min 0 min 0 W/m 6,8 km/h (2 Bft) 97,87 %
02.09.2018 22:14 20,7 C 19,4 C 18,9 C 57 % 1019,3 hPa 0,0 l/m 0 min 0 min 0 W/m 4,5 km/h (1 Bft) 95,65 %
02.09.2018 22:16 20,7 C 19,4 C 18,9 C 57 % 1019,3 hPa 0,0 l/m 0 min 0 min 0 W/m 6,8 km/h (2 Bft) 95,74 %
02.09.2018 22:18 20,6 C 19,4 C 18,9 C 57 % 1019,4 hPa 0,0 l/m 0 min 0 min 0 W/m 9,0 km/h (2 Bft) 97,87 %
02.09.2018 22:20 20,6 C 19,4 C 18,9 C 57 % 1019,3 hPa 0,0 l/m 0 min 0 min 0 W/m 6,8 km/h (2 Bft) 97,87 %
02.09.2018 22:22 20,6 C 19,4 C 18,9 C 57 % 1019,3 hPa 0,0 l/m 0 min 0 min 0 W/m 6,8 km/h (2 Bft) 97,87 %
02.09.2018 22:24 20,6 C 19,4 C 18,9 C 58 % 1019,3 hPa 0,0 l/m 0 min 0 min 0 W/m 6,8 km/h (2 Bft) 97,87 %
02.09.2018 22:26 20,6 C 19,4 C 18,9 C 58 % 1019,3 hPa 0,0 l/m 0 min 0 min 0 W/m 6,8 km/h (2 Bft) 97,83 %
02.09.2018 22:28 20,6 C 19,4 C 18,9 C 58 % 1019,3 hPa 0,0 l/m 0 min 0 min 0 W/m 6,8 km/h (2 Bft) 95,74 %
02.09.2018 22:30 20,5 C 19,4 C 18,9 C 58 % 1019,4 hPa 0,0 l/m 0 min 0 min 0 W/m 6,8 km/h (2 Bft) 95,74 %
02.09.2018 22:32 20,5 C 19,4 C 18,9 C 59 % 1019,3 hPa 0,0 l/m 0 min 0 min 0 W/m 11,3 km/h (2 Bft) 94,44 %
02.09.2018 22:34 20,4 C 19,4 C 18,9 C 59 % 1019,3 hPa 0,0 l/m 0 min 0 min 0 W/m 4,5 km/h (1 Bft) 97,87 %
02.09.2018 22:36 20,4 C 19,4 C 18,9 C 59 % 1019,3 hPa 0,0 l/m 0 min 0 min 0 W/m 4,5 km/h (1 Bft) 95,74 %
02.09.2018 22:38 20,4 C 18,9 C 18,9 C 59 % 1019,4 hPa 0,0 l/m 0 min 0 min 0 W/m 4,5 km/h (1 Bft) 95,74 %
02.09.2018 22:40 20,4 C 18,9 C 18,3 C 59 % 1019,3 hPa 0,0 l/m 0 min 0 min 0 W/m 6,8 km/h (2 Bft) 93,62 %
02.09.2018 22:42 20,4 C 18,9 C 18,3 C 59 % 1019,3 hPa 0,0 l/m 0 min 0 min 0 W/m 6,8 km/h (2 Bft) 95,65 %
02.09.2018 22:44 20,3 C 18,9 C 18,3 C 59 % 1019,2 hPa 0,0 l/m 0 min 0 min 0 W/m 4,5 km/h (1 Bft) 97,87 %
02.09.2018 22:46 20,3 C 18,9 C 18,3 C 59 % 1019,2 hPa 0,0 l/m 0 min 0 min 0 W/m 4,5 km/h (1 Bft) 95,74 %
02.09.2018 22:48 20,3 C 18,9 C 18,3 C 59 % 1019,2 hPa 0,0 l/m 0 min 0 min 0 W/m 6,8 km/h (2 Bft) 93,62 %
02.09.2018 22:50 20,3 C 18,9 C 18,3 C 60 % 1019,3 hPa 0,0 l/m 0 min 0 min 0 W/m 11,3 km/h (2 Bft) 95,74 %
02.09.2018 22:52 20,2 C 18,9 C 18,3 C 60 % 1019,2 hPa 0,0 l/m 0 min 0 min 0 W/m 4,5 km/h (1 Bft) 95,74 %
02.09.2018 22:54 20,2 C 18,9 C 18,3 C 60 % 1019,2 hPa 0,0 l/m 0 min 0 min 0 W/m 9,0 km/h (2 Bft) 96,15 %
02.09.2018 22:56 20,2 C 18,9 C 18,3 C 60 % 1019,2 hPa 0,0 l/m 0 min 0 min 0 W/m 9,0 km/h (2 Bft) 93,62 %
02.09.2018 22:58 20,2 C 18,9 C 18,3 C 60 % 1019,2 hPa 0,0 l/m 0 min 0 min 0 W/m 6,8 km/h (2 Bft) 97,87 %
02.09.2018 23:00 20,2 C 18,9 C 18,3 C 60 % 1019,2 hPa 0,0 l/m 0 min 0 min 0 W/m 6,8 km/h (2 Bft) 97,87 %
02.09.2018 23:02 20,1 C 18,9 C 18,3 C 61 % 1019,2 hPa 0,0 l/m 0 min 0 min 0 W/m 6,8 km/h (2 Bft) 95,83 %
02.09.2018 23:04 20,1 C 18,9 C 18,3 C 61 % 1019,2 hPa 0,0 l/m 0 min 0 min 0 W/m 6,8 km/h (2 Bft) 95,74 %
02.09.2018 23:06 20,1 C 18,9 C 18,3 C 61 % 1019,2 hPa 0,0 l/m 0 min 0 min 0 W/m 4,5 km/h (1 Bft) 95,83 %
02.09.2018 23:08 20,1 C 18,9 C 18,3 C 61 % 1019,2 hPa 0,0 l/m 0 min 0 min 0 W/m 4,5 km/h (1 Bft) 97,87 %
02.09.2018 23:10 20,1 C 18,9 C 18,3 C 61 % 1019,2 hPa 0,0 l/m 0 min 0 min 0 W/m 4,5 km/h (1 Bft) 97,87 %
02.09.2018 23:12 20,0 C 18,9 C 18,3 C 61 % 1019,2 hPa 0,0 l/m 0 min 0 min 0 W/m 6,8 km/h (2 Bft) 97,87 %
02.09.2018 23:14 20,0 C 18,9 C 18,3 C 62 % 1019,2 hPa 0,0 l/m 0 min 0 min 0 W/m 4,5 km/h (1 Bft) 95,65 %
02.09.2018 23:16 20,0 C 18,9 C 18,3 C 62 % 1019,2 hPa 0,0 l/m 0 min 0 min 0 W/m 4,5 km/h (1 Bft) 97,87 %
02.09.2018 23:18 19,9 C 18,9 C 18,3 C 61 % 1019,2 hPa 0,0 l/m 0 min 0 min 0 W/m 4,5 km/h (1 Bft) 97,87 %
02.09.2018 23:20 19,9 C 18,9 C 18,3 C 62 % 1019,3 hPa 0,0 l/m 0 min 0 min 0 W/m 2,3 km/h (1 Bft) 97,87 %
02.09.2018 23:22 19,9 C 18,9 C 18,3 C 62 % 1019,2 hPa 0,0 l/m 0 min 0 min 0 W/m 4,5 km/h (1 Bft) 97,92 %
02.09.2018 23:24 19,9 C 18,9 C 18,3 C 62 % 1019,2 hPa 0,0 l/m 0 min 0 min 0 W/m 4,5 km/h (1 Bft) 97,87 %
02.09.2018 23:26 19,9 C 18,9 C 18,3 C 62 % 1019,2 hPa 0,0 l/m 0 min 0 min 0 W/m 6,8 km/h (2 Bft) 97,83 %
02.09.2018 23:28 19,9 C 18,9 C 18,3 C 63 % 1019,1 hPa 0,0 l/m 0 min 0 min 0 W/m 2,3 km/h (1 Bft) 95,74 %
02.09.2018 23:30 19,8 C 18,9 C 18,3 C 63 % 1019,1 hPa 0,0 l/m 0 min 0 min 0 W/m 6,8 km/h (2 Bft) 95,74 %
02.09.2018 23:32 19,8 C 18,9 C 18,3 C 63 % 1019,1 hPa 0,0 l/m 0 min 0 min 0 W/m 6,8 km/h (2 Bft) 97,30 %
02.09.2018 23:34 19,8 C 18,9 C 18,3 C 63 % 1019,1 hPa 0,0 l/m 0 min 0 min 0 W/m 4,5 km/h (1 Bft) 97,87 %
02.09.2018 23:36 19,8 C 18,9 C 18,3 C 63 % 1019,1 hPa 0,0 l/m 0 min 0 min 0 W/m 4,5 km/h (1 Bft) 100,00 %
02.09.2018 23:38 19,8 C 18,9 C 18,3 C 63 % 1019,1 hPa 0,0 l/m 0 min 0 min 0 W/m 4,5 km/h (1 Bft) 100,00 %
02.09.2018 23:40 19,7 C 18,9 C 18,3 C 63 % 1019,1 hPa 0,0 l/m 0 min 0 min 0 W/m 6,8 km/h (2 Bft) 97,87 %
02.09.2018 23:42 19,7 C 18,9 C 18,3 C 63 % 1019,0 hPa 0,0 l/m 0 min 0 min 0 W/m 6,8 km/h (2 Bft) 100,00 %
02.09.2018 23:44 19,7 C 18,9 C 18,3 C 63 % 1019,0 hPa 0,0 l/m 0 min 0 min 0 W/m 4,5 km/h (1 Bft) 100,00 %
02.09.2018 23:46 19,7 C 18,9 C 18,3 C 63 % 1019,0 hPa 0,0 l/m 0 min 0 min 0 W/m 2,3 km/h (1 Bft) 100,00 %
02.09.2018 23:48 19,7 C 18,9 C 18,3 C 63 % 1019,0 hPa 0,0 l/m 0 min 0 min 0 W/m 4,5 km/h (1 Bft) 95,74 %
02.09.2018 23:50 19,7 C 18,9 C 18,3 C 64 % 1019,0 hPa 0,0 l/m 0 min 0 min 0 W/m 4,5 km/h (1 Bft) 97,83 %
02.09.2018 23:52 19,7 C 18,3 C 17,8 C 64 % 1019,0 hPa 0,0 l/m 0 min 0 min 0 W/m 4,5 km/h (1 Bft) 97,87 %
02.09.2018 23:54 19,7 C 18,3 C 17,8 C 64 % 1019,0 hPa 0,0 l/m 0 min 0 min 0 W/m 2,3 km/h (1 Bft) 97,87 %
02.09.2018 23:56 19,6 C 18,3 C 17,8 C 64 % 1019,0 hPa 0,0 l/m 0 min 0 min 0 W/m 4,5 km/h (1 Bft) 93,62 %
02.09.2018 23:58 19,6 C 18,3 C 17,8 C 64 % 1019,0 hPa 0,0 l/m 0 min 0 min 0 W/m 6,8 km/h (2 Bft) 97,87 %
_ Min-Zeit 07:12 06:18 06:42 16:40 19:44 - - - - 00:00 06:36
Minimum _ 9,8 C 8,9 C 8,9 C 48 % 1018,9 hPa - - - - 0,0 km/h (0 Bft) 89,19 %
_ Max-Zeit 17:16 12:24 17:16 09:14 00:08 00:00 18:07 00:00 13:56 14:30 01:06
Maximum _ 25,6 C 31,1 C 22,8 C 97 % 1024,7 hPa 0,0 l/m 3 min 0 min 720 W/m 27,0 km/h
S-SW (4 Bft)
100,00 %
Durchschnitt _ 18,0 C 18,8 C 16,4 C 70 % 1022,0 hPa #0,0 l/m #8:38 h #0 min. 351 W/m 5,8 km/h (2 Bft) 97,49 %
© 2018 W. Hausmann